<?xml version="1.0" encoding="UTF-8" standalone="no" ?>
<gpx xmlns="http://www.topografix.com/GPX/1/1" xmlns:xsi="http://www.w3.org/2001/XMLSchema-instance" xsi:schemaLocation="http://www.topografix.com/GPX/1/1 http://www.topografix.com/GPX/1/1/gpx.xsd" version="1.1" creator="VisuGPX - https://www.visugpx.com">
  <metadata>
    <name>MILLAU J1 et 2</name>
  </metadata>
  <trk>
    <name><![CDATA[Creissels VTT]]></name>
    <trkseg>
      <trkpt lat="44.07083" lon="3.06117">
        <ele>936.59997558594</ele>
        <time>2020-10-02T07:33:25.000Z</time>
      </trkpt>
      <trkpt lat="44.07079" lon="3.06108">
        <ele>936.40002441406</ele>
        <time>2020-10-02T07:33:28.000Z</time>
      </trkpt>
      <trkpt lat="44.07073" lon="3.06079">
        <ele>936.79998779297</ele>
        <time>2020-10-02T07:33:34.000Z</time>
      </trkpt>
      <trkpt lat="44.07065" lon="3.06039">
        <ele>936.40002441406</ele>
        <time>2020-10-02T07:33:43.000Z</time>
      </trkpt>
      <trkpt lat="44.07059" lon="3.06015">
        <ele>936.79998779297</ele>
        <time>2020-10-02T07:33:50.000Z</time>
      </trkpt>
      <trkpt lat="44.07052" lon="3.05987">
        <ele>936.79998779297</ele>
        <time>2020-10-02T07:33:58.000Z</time>
      </trkpt>
      <trkpt lat="44.0705" lon="3.05976">
        <ele>936.79998779297</ele>
        <time>2020-10-02T07:34:01.000Z</time>
      </trkpt>
      <trkpt lat="44.07046" lon="3.05972">
        <ele>936.79998779297</ele>
        <time>2020-10-02T07:34:05.000Z</time>
      </trkpt>
      <trkpt lat="44.07044" lon="3.05943">
        <ele>937</ele>
        <time>2020-10-02T07:34:12.000Z</time>
      </trkpt>
      <trkpt lat="44.07045" lon="3.05912">
        <ele>937</ele>
        <time>2020-10-02T07:34:19.000Z</time>
      </trkpt>
      <trkpt lat="44.07045" lon="3.05884">
        <ele>937</ele>
        <time>2020-10-02T07:34:26.000Z</time>
      </trkpt>
      <trkpt lat="44.07032" lon="3.05852">
        <ele>937.20001220703</ele>
        <time>2020-10-02T07:34:34.000Z</time>
      </trkpt>
      <trkpt lat="44.07026" lon="3.05841">
        <ele>937.20001220703</ele>
        <time>2020-10-02T07:34:37.000Z</time>
      </trkpt>
      <trkpt lat="44.07016" lon="3.05834">
        <ele>937.40002441406</ele>
        <time>2020-10-02T07:34:40.000Z</time>
      </trkpt>
      <trkpt lat="44.06999" lon="3.05825">
        <ele>937.20001220703</ele>
        <time>2020-10-02T07:34:44.000Z</time>
      </trkpt>
      <trkpt lat="44.0699" lon="3.05823">
        <ele>937.20001220703</ele>
        <time>2020-10-02T07:34:46.000Z</time>
      </trkpt>
      <trkpt lat="44.0697" lon="3.0582">
        <ele>937</ele>
        <time>2020-10-02T07:34:50.000Z</time>
      </trkpt>
      <trkpt lat="44.06958" lon="3.05813">
        <ele>936.40002441406</ele>
        <time>2020-10-02T07:34:52.000Z</time>
      </trkpt>
      <trkpt lat="44.06953" lon="3.05809">
        <ele>936.20001220703</ele>
        <time>2020-10-02T07:34:53.000Z</time>
      </trkpt>
      <trkpt lat="44.06943" lon="3.05803">
        <ele>935.79998779297</ele>
        <time>2020-10-02T07:34:55.000Z</time>
      </trkpt>
      <trkpt lat="44.06939" lon="3.05802">
        <ele>935.59997558594</ele>
        <time>2020-10-02T07:34:56.000Z</time>
      </trkpt>
      <trkpt lat="44.06924" lon="3.05797">
        <ele>935</ele>
        <time>2020-10-02T07:34:59.000Z</time>
      </trkpt>
      <trkpt lat="44.06918" lon="3.05794">
        <ele>934.40002441406</ele>
        <time>2020-10-02T07:35:00.000Z</time>
      </trkpt>
      <trkpt lat="44.06911" lon="3.05789">
        <ele>934</ele>
        <time>2020-10-02T07:35:01.000Z</time>
      </trkpt>
      <trkpt lat="44.06906" lon="3.05787">
        <ele>933.20001220703</ele>
        <time>2020-10-02T07:35:02.000Z</time>
      </trkpt>
      <trkpt lat="44.06901" lon="3.05788">
        <ele>932.59997558594</ele>
        <time>2020-10-02T07:35:03.000Z</time>
      </trkpt>
      <trkpt lat="44.06897" lon="3.05794">
        <ele>931.79998779297</ele>
        <time>2020-10-02T07:35:05.000Z</time>
      </trkpt>
      <trkpt lat="44.06892" lon="3.05797">
        <ele>930.20001220703</ele>
        <time>2020-10-02T07:35:07.000Z</time>
      </trkpt>
      <trkpt lat="44.06888" lon="3.05799">
        <ele>929.40002441406</ele>
        <time>2020-10-02T07:35:08.000Z</time>
      </trkpt>
      <trkpt lat="44.06884" lon="3.058">
        <ele>929</ele>
        <time>2020-10-02T07:35:09.000Z</time>
      </trkpt>
      <trkpt lat="44.06862" lon="3.05803">
        <ele>928</ele>
        <time>2020-10-02T07:35:14.000Z</time>
      </trkpt>
      <trkpt lat="44.06858" lon="3.05803">
        <ele>928</ele>
        <time>2020-10-02T07:35:15.000Z</time>
      </trkpt>
      <trkpt lat="44.06852" lon="3.05802">
        <ele>928</ele>
        <time>2020-10-02T07:35:16.000Z</time>
      </trkpt>
      <trkpt lat="44.06841" lon="3.05801">
        <ele>927.79998779297</ele>
        <time>2020-10-02T07:35:18.000Z</time>
      </trkpt>
      <trkpt lat="44.06834" lon="3.058">
        <ele>927.79998779297</ele>
        <time>2020-10-02T07:35:19.000Z</time>
      </trkpt>
      <trkpt lat="44.06816" lon="3.05798">
        <ele>926.79998779297</ele>
        <time>2020-10-02T07:35:22.000Z</time>
      </trkpt>
      <trkpt lat="44.06791" lon="3.05794">
        <ele>925.40002441406</ele>
        <time>2020-10-02T07:35:26.000Z</time>
      </trkpt>
      <trkpt lat="44.06785" lon="3.05791">
        <ele>925</ele>
        <time>2020-10-02T07:35:27.000Z</time>
      </trkpt>
      <trkpt lat="44.06775" lon="3.05782">
        <ele>924.40002441406</ele>
        <time>2020-10-02T07:35:29.000Z</time>
      </trkpt>
      <trkpt lat="44.06765" lon="3.05771">
        <ele>923.79998779297</ele>
        <time>2020-10-02T07:35:31.000Z</time>
      </trkpt>
      <trkpt lat="44.06757" lon="3.05755">
        <ele>923.40002441406</ele>
        <time>2020-10-02T07:35:34.000Z</time>
      </trkpt>
      <trkpt lat="44.06756" lon="3.05749">
        <ele>923</ele>
        <time>2020-10-02T07:35:35.000Z</time>
      </trkpt>
      <trkpt lat="44.06751" lon="3.0573">
        <ele>922.59997558594</ele>
        <time>2020-10-02T07:35:38.000Z</time>
      </trkpt>
      <trkpt lat="44.06746" lon="3.05721">
        <ele>922.59997558594</ele>
        <time>2020-10-02T07:35:40.000Z</time>
      </trkpt>
      <trkpt lat="44.06734" lon="3.05718">
        <ele>922.40002441406</ele>
        <time>2020-10-02T07:35:43.000Z</time>
      </trkpt>
      <trkpt lat="44.0673" lon="3.05719">
        <ele>922.40002441406</ele>
        <time>2020-10-02T07:35:44.000Z</time>
      </trkpt>
      <trkpt lat="44.06726" lon="3.0572">
        <ele>922.20001220703</ele>
        <time>2020-10-02T07:35:45.000Z</time>
      </trkpt>
      <trkpt lat="44.06717" lon="3.05721">
        <ele>922.20001220703</ele>
        <time>2020-10-02T07:35:47.000Z</time>
      </trkpt>
      <trkpt lat="44.06708" lon="3.05722">
        <ele>922.20001220703</ele>
        <time>2020-10-02T07:35:49.000Z</time>
      </trkpt>
      <trkpt lat="44.06676" lon="3.05723">
        <ele>921.59997558594</ele>
        <time>2020-10-02T07:35:56.000Z</time>
      </trkpt>
      <trkpt lat="44.06672" lon="3.05723">
        <ele>921.59997558594</ele>
        <time>2020-10-02T07:35:57.000Z</time>
      </trkpt>
      <trkpt lat="44.06656" lon="3.05729">
        <ele>921.40002441406</ele>
        <time>2020-10-02T07:36:01.000Z</time>
      </trkpt>
      <trkpt lat="44.06646" lon="3.05731">
        <ele>921.20001220703</ele>
        <time>2020-10-02T07:36:03.000Z</time>
      </trkpt>
      <trkpt lat="44.06637" lon="3.05735">
        <ele>921.20001220703</ele>
        <time>2020-10-02T07:36:05.000Z</time>
      </trkpt>
      <trkpt lat="44.06629" lon="3.05738">
        <ele>921.20001220703</ele>
        <time>2020-10-02T07:36:07.000Z</time>
      </trkpt>
      <trkpt lat="44.06615" lon="3.05749">
        <ele>921</ele>
        <time>2020-10-02T07:36:12.000Z</time>
      </trkpt>
      <trkpt lat="44.06612" lon="3.05752">
        <ele>921</ele>
        <time>2020-10-02T07:36:13.000Z</time>
      </trkpt>
      <trkpt lat="44.06605" lon="3.05768">
        <ele>920.79998779297</ele>
        <time>2020-10-02T07:36:17.000Z</time>
      </trkpt>
      <trkpt lat="44.06602" lon="3.05781">
        <ele>920.59997558594</ele>
        <time>2020-10-02T07:36:21.000Z</time>
      </trkpt>
      <trkpt lat="44.06601" lon="3.05782">
        <ele>920.59997558594</ele>
        <time>2020-10-02T07:36:22.000Z</time>
      </trkpt>
      <trkpt lat="44.06597" lon="3.05791">
        <ele>920.40002441406</ele>
        <time>2020-10-02T07:36:26.000Z</time>
      </trkpt>
      <trkpt lat="44.06595" lon="3.05795">
        <ele>920.40002441406</ele>
        <time>2020-10-02T07:36:28.000Z</time>
      </trkpt>
      <trkpt lat="44.0659" lon="3.05799">
        <ele>920.40002441406</ele>
        <time>2020-10-02T07:36:31.000Z</time>
      </trkpt>
      <trkpt lat="44.06574" lon="3.05802">
        <ele>920.40002441406</ele>
        <time>2020-10-02T07:36:37.000Z</time>
      </trkpt>
      <trkpt lat="44.06567" lon="3.05803">
        <ele>920.20001220703</ele>
        <time>2020-10-02T07:36:39.000Z</time>
      </trkpt>
      <trkpt lat="44.06558" lon="3.05802">
        <ele>920</ele>
        <time>2020-10-02T07:36:41.000Z</time>
      </trkpt>
      <trkpt lat="44.06553" lon="3.05801">
        <ele>920</ele>
        <time>2020-10-02T07:36:42.000Z</time>
      </trkpt>
      <trkpt lat="44.0653" lon="3.0579">
        <ele>919.20001220703</ele>
        <time>2020-10-02T07:36:47.000Z</time>
      </trkpt>
      <trkpt lat="44.06526" lon="3.05787">
        <ele>919</ele>
        <time>2020-10-02T07:36:48.000Z</time>
      </trkpt>
      <trkpt lat="44.06491" lon="3.05759">
        <ele>918.79998779297</ele>
        <time>2020-10-02T07:36:57.000Z</time>
      </trkpt>
      <trkpt lat="44.06454" lon="3.05731">
        <ele>919</ele>
        <time>2020-10-02T07:37:07.000Z</time>
      </trkpt>
      <trkpt lat="44.06423" lon="3.05709">
        <ele>919.59997558594</ele>
        <time>2020-10-02T07:37:16.000Z</time>
      </trkpt>
      <trkpt lat="44.06401" lon="3.05691">
        <ele>920.20001220703</ele>
        <time>2020-10-02T07:37:22.000Z</time>
      </trkpt>
      <trkpt lat="44.06398" lon="3.05687">
        <ele>920.40002441406</ele>
        <time>2020-10-02T07:37:23.000Z</time>
      </trkpt>
      <trkpt lat="44.06379" lon="3.05653">
        <ele>921</ele>
        <time>2020-10-02T07:37:31.000Z</time>
      </trkpt>
      <trkpt lat="44.06376" lon="3.05649">
        <ele>921.20001220703</ele>
        <time>2020-10-02T07:37:32.000Z</time>
      </trkpt>
      <trkpt lat="44.06361" lon="3.05634">
        <ele>922.20001220703</ele>
        <time>2020-10-02T07:37:38.000Z</time>
      </trkpt>
      <trkpt lat="44.06357" lon="3.05632">
        <ele>922.40002441406</ele>
        <time>2020-10-02T07:37:39.000Z</time>
      </trkpt>
      <trkpt lat="44.06345" lon="3.05623">
        <ele>923.40002441406</ele>
        <time>2020-10-02T07:37:43.000Z</time>
      </trkpt>
      <trkpt lat="44.06342" lon="3.0562">
        <ele>923.59997558594</ele>
        <time>2020-10-02T07:37:44.000Z</time>
      </trkpt>
      <trkpt lat="44.06322" lon="3.05602">
        <ele>924.59997558594</ele>
        <time>2020-10-02T07:37:52.000Z</time>
      </trkpt>
      <trkpt lat="44.0632" lon="3.05599">
        <ele>924.59997558594</ele>
        <time>2020-10-02T07:37:53.000Z</time>
      </trkpt>
      <trkpt lat="44.06307" lon="3.05586">
        <ele>925</ele>
        <time>2020-10-02T07:37:59.000Z</time>
      </trkpt>
      <trkpt lat="44.06303" lon="3.05583">
        <ele>925.59997558594</ele>
        <time>2020-10-02T07:38:03.000Z</time>
      </trkpt>
      <trkpt lat="44.06302" lon="3.05582">
        <ele>926</ele>
        <time>2020-10-02T07:38:05.000Z</time>
      </trkpt>
      <trkpt lat="44.06302" lon="3.05581">
        <ele>926.79998779297</ele>
        <time>2020-10-02T07:38:12.000Z</time>
      </trkpt>
      <trkpt lat="44.06302" lon="3.05581">
        <ele>927.59997558594</ele>
        <time>2020-10-02T07:38:16.000Z</time>
      </trkpt>
      <trkpt lat="44.06302" lon="3.05577">
        <ele>927.59997558594</ele>
        <time>2020-10-02T07:38:24.000Z</time>
      </trkpt>
      <trkpt lat="44.06297" lon="3.05572">
        <ele>927.79998779297</ele>
        <time>2020-10-02T07:38:33.000Z</time>
      </trkpt>
      <trkpt lat="44.06294" lon="3.05568">
        <ele>927.79998779297</ele>
        <time>2020-10-02T07:38:35.000Z</time>
      </trkpt>
      <trkpt lat="44.06288" lon="3.05558">
        <ele>928</ele>
        <time>2020-10-02T07:38:39.000Z</time>
      </trkpt>
      <trkpt lat="44.06282" lon="3.0555">
        <ele>928.40002441406</ele>
        <time>2020-10-02T07:38:42.000Z</time>
      </trkpt>
      <trkpt lat="44.06267" lon="3.05529">
        <ele>928.79998779297</ele>
        <time>2020-10-02T07:38:50.000Z</time>
      </trkpt>
      <trkpt lat="44.06266" lon="3.05527">
        <ele>929</ele>
        <time>2020-10-02T07:38:51.000Z</time>
      </trkpt>
      <trkpt lat="44.06256" lon="3.05511">
        <ele>930.20001220703</ele>
        <time>2020-10-02T07:38:57.000Z</time>
      </trkpt>
      <trkpt lat="44.06252" lon="3.05504">
        <ele>930.79998779297</ele>
        <time>2020-10-02T07:39:00.000Z</time>
      </trkpt>
      <trkpt lat="44.06248" lon="3.05497">
        <ele>931.40002441406</ele>
        <time>2020-10-02T07:39:03.000Z</time>
      </trkpt>
      <trkpt lat="44.06243" lon="3.05487">
        <ele>932.40002441406</ele>
        <time>2020-10-02T07:39:08.000Z</time>
      </trkpt>
      <trkpt lat="44.06242" lon="3.05485">
        <ele>932.79998779297</ele>
        <time>2020-10-02T07:39:09.000Z</time>
      </trkpt>
      <trkpt lat="44.0624" lon="3.05481">
        <ele>933.59997558594</ele>
        <time>2020-10-02T07:39:11.000Z</time>
      </trkpt>
      <trkpt lat="44.06235" lon="3.05471">
        <ele>934.59997558594</ele>
        <time>2020-10-02T07:39:17.000Z</time>
      </trkpt>
      <trkpt lat="44.06234" lon="3.05469">
        <ele>935</ele>
        <time>2020-10-02T07:39:18.000Z</time>
      </trkpt>
      <trkpt lat="44.0623" lon="3.05464">
        <ele>935.79998779297</ele>
        <time>2020-10-02T07:39:21.000Z</time>
      </trkpt>
      <trkpt lat="44.06223" lon="3.05454">
        <ele>937.20001220703</ele>
        <time>2020-10-02T07:39:27.000Z</time>
      </trkpt>
      <trkpt lat="44.06215" lon="3.05442">
        <ele>938.40002441406</ele>
        <time>2020-10-02T07:39:35.000Z</time>
      </trkpt>
      <trkpt lat="44.06209" lon="3.05433">
        <ele>939.79998779297</ele>
        <time>2020-10-02T07:39:40.000Z</time>
      </trkpt>
      <trkpt lat="44.06206" lon="3.05427">
        <ele>940.79998779297</ele>
        <time>2020-10-02T07:39:44.000Z</time>
      </trkpt>
      <trkpt lat="44.06202" lon="3.0542">
        <ele>941.40002441406</ele>
        <time>2020-10-02T07:39:48.000Z</time>
      </trkpt>
      <trkpt lat="44.06198" lon="3.05411">
        <ele>941.79998779297</ele>
        <time>2020-10-02T07:39:53.000Z</time>
      </trkpt>
      <trkpt lat="44.06195" lon="3.05406">
        <ele>942.40002441406</ele>
        <time>2020-10-02T07:39:56.000Z</time>
      </trkpt>
      <trkpt lat="44.06192" lon="3.054">
        <ele>942.79998779297</ele>
        <time>2020-10-02T07:39:59.000Z</time>
      </trkpt>
      <trkpt lat="44.06187" lon="3.0539">
        <ele>943.79998779297</ele>
        <time>2020-10-02T07:40:05.000Z</time>
      </trkpt>
      <trkpt lat="44.06186" lon="3.05388">
        <ele>944.20001220703</ele>
        <time>2020-10-02T07:40:06.000Z</time>
      </trkpt>
      <trkpt lat="44.06185" lon="3.05385">
        <ele>944.79998779297</ele>
        <time>2020-10-02T07:40:08.000Z</time>
      </trkpt>
      <trkpt lat="44.0618" lon="3.05373">
        <ele>946.20001220703</ele>
        <time>2020-10-02T07:40:14.000Z</time>
      </trkpt>
      <trkpt lat="44.06178" lon="3.05364">
        <ele>947.40002441406</ele>
        <time>2020-10-02T07:40:19.000Z</time>
      </trkpt>
      <trkpt lat="44.06175" lon="3.05345">
        <ele>948.20001220703</ele>
        <time>2020-10-02T07:40:28.000Z</time>
      </trkpt>
      <trkpt lat="44.06175" lon="3.05341">
        <ele>948.40002441406</ele>
        <time>2020-10-02T07:40:30.000Z</time>
      </trkpt>
      <trkpt lat="44.06174" lon="3.0533">
        <ele>949.59997558594</ele>
        <time>2020-10-02T07:40:35.000Z</time>
      </trkpt>
      <trkpt lat="44.06173" lon="3.05324">
        <ele>950.40002441406</ele>
        <time>2020-10-02T07:40:38.000Z</time>
      </trkpt>
      <trkpt lat="44.06172" lon="3.05322">
        <ele>950.79998779297</ele>
        <time>2020-10-02T07:40:39.000Z</time>
      </trkpt>
      <trkpt lat="44.0617" lon="3.05313">
        <ele>952.20001220703</ele>
        <time>2020-10-02T07:40:44.000Z</time>
      </trkpt>
      <trkpt lat="44.06169" lon="3.05308">
        <ele>952.79998779297</ele>
        <time>2020-10-02T07:40:47.000Z</time>
      </trkpt>
      <trkpt lat="44.06169" lon="3.05304">
        <ele>953.20001220703</ele>
        <time>2020-10-02T07:40:49.000Z</time>
      </trkpt>
      <trkpt lat="44.06168" lon="3.05299">
        <ele>954.40002441406</ele>
        <time>2020-10-02T07:40:52.000Z</time>
      </trkpt>
      <trkpt lat="44.06167" lon="3.05295">
        <ele>954.59997558594</ele>
        <time>2020-10-02T07:40:54.000Z</time>
      </trkpt>
      <trkpt lat="44.06166" lon="3.05293">
        <ele>954.79998779297</ele>
        <time>2020-10-02T07:40:55.000Z</time>
      </trkpt>
      <trkpt lat="44.06165" lon="3.05288">
        <ele>955.59997558594</ele>
        <time>2020-10-02T07:40:58.000Z</time>
      </trkpt>
      <trkpt lat="44.06163" lon="3.05275">
        <ele>956.40002441406</ele>
        <time>2020-10-02T07:41:05.000Z</time>
      </trkpt>
      <trkpt lat="44.06163" lon="3.05273">
        <ele>956.59997558594</ele>
        <time>2020-10-02T07:41:06.000Z</time>
      </trkpt>
      <trkpt lat="44.06161" lon="3.05266">
        <ele>957.79998779297</ele>
        <time>2020-10-02T07:41:10.000Z</time>
      </trkpt>
      <trkpt lat="44.06158" lon="3.05258">
        <ele>959</ele>
        <time>2020-10-02T07:41:14.000Z</time>
      </trkpt>
      <trkpt lat="44.06158" lon="3.05257">
        <ele>959</ele>
        <time>2020-10-02T07:41:15.000Z</time>
      </trkpt>
      <trkpt lat="44.06157" lon="3.05244">
        <ele>960</ele>
        <time>2020-10-02T07:41:22.000Z</time>
      </trkpt>
      <trkpt lat="44.06156" lon="3.05239">
        <ele>960.40002441406</ele>
        <time>2020-10-02T07:41:25.000Z</time>
      </trkpt>
      <trkpt lat="44.06156" lon="3.05231">
        <ele>961.20001220703</ele>
        <time>2020-10-02T07:41:29.000Z</time>
      </trkpt>
      <trkpt lat="44.06157" lon="3.05218">
        <ele>962.20001220703</ele>
        <time>2020-10-02T07:41:36.000Z</time>
      </trkpt>
      <trkpt lat="44.06157" lon="3.05208">
        <ele>963.40002441406</ele>
        <time>2020-10-02T07:41:41.000Z</time>
      </trkpt>
      <trkpt lat="44.06158" lon="3.05197">
        <ele>964.79998779297</ele>
        <time>2020-10-02T07:41:47.000Z</time>
      </trkpt>
      <trkpt lat="44.06159" lon="3.05196">
        <ele>965</ele>
        <time>2020-10-02T07:41:48.000Z</time>
      </trkpt>
      <trkpt lat="44.06165" lon="3.05195">
        <ele>965.59997558594</ele>
        <time>2020-10-02T07:41:52.000Z</time>
      </trkpt>
      <trkpt lat="44.06167" lon="3.05195">
        <ele>965.79998779297</ele>
        <time>2020-10-02T07:41:53.000Z</time>
      </trkpt>
      <trkpt lat="44.06168" lon="3.05195">
        <ele>966</ele>
        <time>2020-10-02T07:41:54.000Z</time>
      </trkpt>
      <trkpt lat="44.06179" lon="3.05192">
        <ele>966.79998779297</ele>
        <time>2020-10-02T07:42:01.000Z</time>
      </trkpt>
      <trkpt lat="44.06182" lon="3.0519">
        <ele>967</ele>
        <time>2020-10-02T07:42:03.000Z</time>
      </trkpt>
      <trkpt lat="44.06194" lon="3.05185">
        <ele>967.40002441406</ele>
        <time>2020-10-02T07:42:11.000Z</time>
      </trkpt>
      <trkpt lat="44.06208" lon="3.05178">
        <ele>967.79998779297</ele>
        <time>2020-10-02T07:42:21.000Z</time>
      </trkpt>
      <trkpt lat="44.06216" lon="3.05176">
        <ele>968</ele>
        <time>2020-10-02T07:42:28.000Z</time>
      </trkpt>
      <trkpt lat="44.06214" lon="3.05176">
        <ele>968</ele>
        <time>2020-10-02T07:42:39.000Z</time>
      </trkpt>
      <trkpt lat="44.06214" lon="3.05174">
        <ele>968</ele>
        <time>2020-10-02T07:43:00.000Z</time>
      </trkpt>
      <trkpt lat="44.06211" lon="3.05167">
        <ele>968.40002441406</ele>
        <time>2020-10-02T07:43:07.000Z</time>
      </trkpt>
      <trkpt lat="44.06211" lon="3.05166">
        <ele>968.40002441406</ele>
        <time>2020-10-02T07:43:08.000Z</time>
      </trkpt>
      <trkpt lat="44.0621" lon="3.05153">
        <ele>969.59997558594</ele>
        <time>2020-10-02T07:43:17.000Z</time>
      </trkpt>
      <trkpt lat="44.0621" lon="3.05151">
        <ele>969.79998779297</ele>
        <time>2020-10-02T07:43:18.000Z</time>
      </trkpt>
      <trkpt lat="44.06211" lon="3.05141">
        <ele>970</ele>
        <time>2020-10-02T07:43:23.000Z</time>
      </trkpt>
      <trkpt lat="44.06212" lon="3.05127">
        <ele>971</ele>
        <time>2020-10-02T07:43:29.000Z</time>
      </trkpt>
      <trkpt lat="44.06213" lon="3.05121">
        <ele>971.40002441406</ele>
        <time>2020-10-02T07:43:32.000Z</time>
      </trkpt>
      <trkpt lat="44.06216" lon="3.05105">
        <ele>972.40002441406</ele>
        <time>2020-10-02T07:43:39.000Z</time>
      </trkpt>
      <trkpt lat="44.06216" lon="3.05103">
        <ele>972.59997558594</ele>
        <time>2020-10-02T07:43:40.000Z</time>
      </trkpt>
      <trkpt lat="44.06217" lon="3.05093">
        <ele>973.40002441406</ele>
        <time>2020-10-02T07:43:46.000Z</time>
      </trkpt>
      <trkpt lat="44.06216" lon="3.05089">
        <ele>973.59997558594</ele>
        <time>2020-10-02T07:43:48.000Z</time>
      </trkpt>
      <trkpt lat="44.0621" lon="3.05079">
        <ele>975</ele>
        <time>2020-10-02T07:43:55.000Z</time>
      </trkpt>
      <trkpt lat="44.06207" lon="3.05076">
        <ele>975.59997558594</ele>
        <time>2020-10-02T07:43:57.000Z</time>
      </trkpt>
      <trkpt lat="44.06204" lon="3.05075">
        <ele>976</ele>
        <time>2020-10-02T07:43:59.000Z</time>
      </trkpt>
      <trkpt lat="44.06196" lon="3.05071">
        <ele>977.20001220703</ele>
        <time>2020-10-02T07:44:04.000Z</time>
      </trkpt>
      <trkpt lat="44.06188" lon="3.05068">
        <ele>978.20001220703</ele>
        <time>2020-10-02T07:44:09.000Z</time>
      </trkpt>
      <trkpt lat="44.06174" lon="3.05064">
        <ele>979.59997558594</ele>
        <time>2020-10-02T07:44:18.000Z</time>
      </trkpt>
      <trkpt lat="44.06159" lon="3.05061">
        <ele>980.79998779297</ele>
        <time>2020-10-02T07:44:27.000Z</time>
      </trkpt>
      <trkpt lat="44.06156" lon="3.0506">
        <ele>981</ele>
        <time>2020-10-02T07:44:29.000Z</time>
      </trkpt>
      <trkpt lat="44.06144" lon="3.05054">
        <ele>981.79998779297</ele>
        <time>2020-10-02T07:44:37.000Z</time>
      </trkpt>
      <trkpt lat="44.06143" lon="3.05052">
        <ele>982</ele>
        <time>2020-10-02T07:44:38.000Z</time>
      </trkpt>
      <trkpt lat="44.06135" lon="3.05043">
        <ele>983</ele>
        <time>2020-10-02T07:44:45.000Z</time>
      </trkpt>
      <trkpt lat="44.06131" lon="3.05029">
        <ele>984.20001220703</ele>
        <time>2020-10-02T07:44:52.000Z</time>
      </trkpt>
      <trkpt lat="44.06131" lon="3.05027">
        <ele>984.40002441406</ele>
        <time>2020-10-02T07:44:53.000Z</time>
      </trkpt>
      <trkpt lat="44.0613" lon="3.05009">
        <ele>985.20001220703</ele>
        <time>2020-10-02T07:45:00.000Z</time>
      </trkpt>
      <trkpt lat="44.0613" lon="3.05006">
        <ele>985.20001220703</ele>
        <time>2020-10-02T07:45:01.000Z</time>
      </trkpt>
      <trkpt lat="44.06126" lon="3.04986">
        <ele>985.59997558594</ele>
        <time>2020-10-02T07:45:07.000Z</time>
      </trkpt>
      <trkpt lat="44.06124" lon="3.04953">
        <ele>985.79998779297</ele>
        <time>2020-10-02T07:45:16.000Z</time>
      </trkpt>
      <trkpt lat="44.06128" lon="3.04924">
        <ele>985.40002441406</ele>
        <time>2020-10-02T07:45:23.000Z</time>
      </trkpt>
      <trkpt lat="44.06135" lon="3.04883">
        <ele>985.59997558594</ele>
        <time>2020-10-02T07:45:32.000Z</time>
      </trkpt>
      <trkpt lat="44.06143" lon="3.04858">
        <ele>986</ele>
        <time>2020-10-02T07:45:37.000Z</time>
      </trkpt>
      <trkpt lat="44.06153" lon="3.04815">
        <ele>986</ele>
        <time>2020-10-02T07:45:44.000Z</time>
      </trkpt>
      <trkpt lat="44.06163" lon="3.04771">
        <ele>985.79998779297</ele>
        <time>2020-10-02T07:45:50.000Z</time>
      </trkpt>
      <trkpt lat="44.06166" lon="3.0476">
        <ele>985.20001220703</ele>
        <time>2020-10-02T07:45:53.000Z</time>
      </trkpt>
      <trkpt lat="44.06166" lon="3.04759">
        <ele>984.40002441406</ele>
        <time>2020-10-02T07:45:55.000Z</time>
      </trkpt>
      <trkpt lat="44.06166" lon="3.04759">
        <ele>983.40002441406</ele>
        <time>2020-10-02T07:45:57.000Z</time>
      </trkpt>
      <trkpt lat="44.06166" lon="3.04759">
        <ele>982.79998779297</ele>
        <time>2020-10-02T07:45:58.000Z</time>
      </trkpt>
      <trkpt lat="44.06166" lon="3.0476">
        <ele>982.20001220703</ele>
        <time>2020-10-02T07:45:59.000Z</time>
      </trkpt>
      <trkpt lat="44.06166" lon="3.04761">
        <ele>981.59997558594</ele>
        <time>2020-10-02T07:46:21.000Z</time>
      </trkpt>
      <trkpt lat="44.06166" lon="3.04762">
        <ele>982</ele>
        <time>2020-10-02T07:46:46.000Z</time>
      </trkpt>
      <trkpt lat="44.06166" lon="3.04764">
        <ele>982.20001220703</ele>
        <time>2020-10-02T07:47:17.000Z</time>
      </trkpt>
      <trkpt lat="44.06166" lon="3.04764">
        <ele>982.40002441406</ele>
        <time>2020-10-02T07:47:46.000Z</time>
      </trkpt>
      <trkpt lat="44.06166" lon="3.04765">
        <ele>982.79998779297</ele>
        <time>2020-10-02T07:48:21.000Z</time>
      </trkpt>
      <trkpt lat="44.06166" lon="3.04766">
        <ele>983</ele>
        <time>2020-10-02T07:49:01.000Z</time>
      </trkpt>
      <trkpt lat="44.06166" lon="3.04767">
        <ele>983</ele>
        <time>2020-10-02T07:49:33.000Z</time>
      </trkpt>
      <trkpt lat="44.06166" lon="3.04768">
        <ele>983.20001220703</ele>
        <time>2020-10-02T07:50:04.000Z</time>
      </trkpt>
      <trkpt lat="44.06166" lon="3.04768">
        <ele>983.20001220703</ele>
        <time>2020-10-02T07:50:37.000Z</time>
      </trkpt>
      <trkpt lat="44.06166" lon="3.04768">
        <ele>983.40002441406</ele>
        <time>2020-10-02T07:51:09.000Z</time>
      </trkpt>
      <trkpt lat="44.06166" lon="3.04768">
        <ele>983.40002441406</ele>
        <time>2020-10-02T07:51:40.000Z</time>
      </trkpt>
      <trkpt lat="44.06167" lon="3.04768">
        <ele>983.59997558594</ele>
        <time>2020-10-02T07:52:14.000Z</time>
      </trkpt>
      <trkpt lat="44.06167" lon="3.04768">
        <ele>983.79998779297</ele>
        <time>2020-10-02T07:52:15.000Z</time>
      </trkpt>
      <trkpt lat="44.06167" lon="3.04768">
        <ele>984</ele>
        <time>2020-10-02T07:52:47.000Z</time>
      </trkpt>
      <trkpt lat="44.0617" lon="3.04767">
        <ele>983.59997558594</ele>
        <time>2020-10-02T07:53:12.000Z</time>
      </trkpt>
      <trkpt lat="44.06172" lon="3.04765">
        <ele>983.59997558594</ele>
        <time>2020-10-02T07:53:14.000Z</time>
      </trkpt>
      <trkpt lat="44.0618" lon="3.04752">
        <ele>982.79998779297</ele>
        <time>2020-10-02T07:53:19.000Z</time>
      </trkpt>
      <trkpt lat="44.06182" lon="3.04748">
        <ele>982.40002441406</ele>
        <time>2020-10-02T07:53:20.000Z</time>
      </trkpt>
      <trkpt lat="44.06196" lon="3.04727">
        <ele>981.20001220703</ele>
        <time>2020-10-02T07:53:24.000Z</time>
      </trkpt>
      <trkpt lat="44.06214" lon="3.04698">
        <ele>980</ele>
        <time>2020-10-02T07:53:28.000Z</time>
      </trkpt>
      <trkpt lat="44.06218" lon="3.0469">
        <ele>979.40002441406</ele>
        <time>2020-10-02T07:53:29.000Z</time>
      </trkpt>
      <trkpt lat="44.06223" lon="3.04683">
        <ele>979</ele>
        <time>2020-10-02T07:53:30.000Z</time>
      </trkpt>
      <trkpt lat="44.06226" lon="3.04675">
        <ele>978.40002441406</ele>
        <time>2020-10-02T07:53:31.000Z</time>
      </trkpt>
      <trkpt lat="44.06232" lon="3.04658">
        <ele>977.20001220703</ele>
        <time>2020-10-02T07:53:33.000Z</time>
      </trkpt>
      <trkpt lat="44.06238" lon="3.04639">
        <ele>975.59997558594</ele>
        <time>2020-10-02T07:53:35.000Z</time>
      </trkpt>
      <trkpt lat="44.06243" lon="3.04619">
        <ele>974.40002441406</ele>
        <time>2020-10-02T07:53:37.000Z</time>
      </trkpt>
      <trkpt lat="44.06248" lon="3.04599">
        <ele>973.40002441406</ele>
        <time>2020-10-02T07:53:39.000Z</time>
      </trkpt>
      <trkpt lat="44.06258" lon="3.04558">
        <ele>972.20001220703</ele>
        <time>2020-10-02T07:53:43.000Z</time>
      </trkpt>
      <trkpt lat="44.06269" lon="3.04518">
        <ele>970.79998779297</ele>
        <time>2020-10-02T07:53:47.000Z</time>
      </trkpt>
      <trkpt lat="44.06277" lon="3.04491">
        <ele>969.20001220703</ele>
        <time>2020-10-02T07:53:50.000Z</time>
      </trkpt>
      <trkpt lat="44.06282" lon="3.04474">
        <ele>968</ele>
        <time>2020-10-02T07:53:52.000Z</time>
      </trkpt>
      <trkpt lat="44.06285" lon="3.04467">
        <ele>967.40002441406</ele>
        <time>2020-10-02T07:53:53.000Z</time>
      </trkpt>
      <trkpt lat="44.06295" lon="3.04449">
        <ele>966.40002441406</ele>
        <time>2020-10-02T07:53:57.000Z</time>
      </trkpt>
      <trkpt lat="44.063" lon="3.0444">
        <ele>965</ele>
        <time>2020-10-02T07:53:59.000Z</time>
      </trkpt>
      <trkpt lat="44.06304" lon="3.04427">
        <ele>963.40002441406</ele>
        <time>2020-10-02T07:54:02.000Z</time>
      </trkpt>
      <trkpt lat="44.06308" lon="3.04418">
        <ele>962</ele>
        <time>2020-10-02T07:54:04.000Z</time>
      </trkpt>
      <trkpt lat="44.06311" lon="3.04413">
        <ele>961.40002441406</ele>
        <time>2020-10-02T07:54:05.000Z</time>
      </trkpt>
      <trkpt lat="44.06315" lon="3.04407">
        <ele>960.40002441406</ele>
        <time>2020-10-02T07:54:07.000Z</time>
      </trkpt>
      <trkpt lat="44.06317" lon="3.04406">
        <ele>959.20001220703</ele>
        <time>2020-10-02T07:54:08.000Z</time>
      </trkpt>
      <trkpt lat="44.06319" lon="3.04406">
        <ele>957.79998779297</ele>
        <time>2020-10-02T07:54:10.000Z</time>
      </trkpt>
      <trkpt lat="44.0632" lon="3.04406">
        <ele>956.59997558594</ele>
        <time>2020-10-02T07:54:11.000Z</time>
      </trkpt>
      <trkpt lat="44.06319" lon="3.04408">
        <ele>955.20001220703</ele>
        <time>2020-10-02T07:54:13.000Z</time>
      </trkpt>
      <trkpt lat="44.06319" lon="3.04408">
        <ele>953.40002441406</ele>
        <time>2020-10-02T07:54:14.000Z</time>
      </trkpt>
      <trkpt lat="44.06318" lon="3.0441">
        <ele>952.40002441406</ele>
        <time>2020-10-02T07:54:17.000Z</time>
      </trkpt>
      <trkpt lat="44.06318" lon="3.04411">
        <ele>952</ele>
        <time>2020-10-02T07:54:25.000Z</time>
      </trkpt>
      <trkpt lat="44.06317" lon="3.04416">
        <ele>952</ele>
        <time>2020-10-02T07:54:28.000Z</time>
      </trkpt>
      <trkpt lat="44.06316" lon="3.04426">
        <ele>952</ele>
        <time>2020-10-02T07:54:31.000Z</time>
      </trkpt>
      <trkpt lat="44.0631" lon="3.04448">
        <ele>952</ele>
        <time>2020-10-02T07:54:35.000Z</time>
      </trkpt>
      <trkpt lat="44.06311" lon="3.04457">
        <ele>952</ele>
        <time>2020-10-02T07:54:37.000Z</time>
      </trkpt>
      <trkpt lat="44.06312" lon="3.04457">
        <ele>951.79998779297</ele>
        <time>2020-10-02T07:54:38.000Z</time>
      </trkpt>
      <trkpt lat="44.06318" lon="3.0445">
        <ele>951.79998779297</ele>
        <time>2020-10-02T07:54:40.000Z</time>
      </trkpt>
      <trkpt lat="44.06328" lon="3.04438">
        <ele>951.40002441406</ele>
        <time>2020-10-02T07:54:42.000Z</time>
      </trkpt>
      <trkpt lat="44.06333" lon="3.04432">
        <ele>951</ele>
        <time>2020-10-02T07:54:43.000Z</time>
      </trkpt>
      <trkpt lat="44.06337" lon="3.04425">
        <ele>950</ele>
        <time>2020-10-02T07:54:44.000Z</time>
      </trkpt>
      <trkpt lat="44.06342" lon="3.04419">
        <ele>948.79998779297</ele>
        <time>2020-10-02T07:54:45.000Z</time>
      </trkpt>
      <trkpt lat="44.06346" lon="3.04413">
        <ele>947.79998779297</ele>
        <time>2020-10-02T07:54:46.000Z</time>
      </trkpt>
      <trkpt lat="44.0635" lon="3.04405">
        <ele>946.59997558594</ele>
        <time>2020-10-02T07:54:47.000Z</time>
      </trkpt>
      <trkpt lat="44.06353" lon="3.04398">
        <ele>945.40002441406</ele>
        <time>2020-10-02T07:54:48.000Z</time>
      </trkpt>
      <trkpt lat="44.06357" lon="3.04392">
        <ele>944.59997558594</ele>
        <time>2020-10-02T07:54:49.000Z</time>
      </trkpt>
      <trkpt lat="44.0636" lon="3.04386">
        <ele>943.20001220703</ele>
        <time>2020-10-02T07:54:50.000Z</time>
      </trkpt>
      <trkpt lat="44.06363" lon="3.04381">
        <ele>941.79998779297</ele>
        <time>2020-10-02T07:54:51.000Z</time>
      </trkpt>
      <trkpt lat="44.06365" lon="3.04375">
        <ele>940.40002441406</ele>
        <time>2020-10-02T07:54:52.000Z</time>
      </trkpt>
      <trkpt lat="44.06368" lon="3.04371">
        <ele>939.20001220703</ele>
        <time>2020-10-02T07:54:53.000Z</time>
      </trkpt>
      <trkpt lat="44.06372" lon="3.04367">
        <ele>938</ele>
        <time>2020-10-02T07:54:54.000Z</time>
      </trkpt>
      <trkpt lat="44.06376" lon="3.04363">
        <ele>936.79998779297</ele>
        <time>2020-10-02T07:54:55.000Z</time>
      </trkpt>
      <trkpt lat="44.0638" lon="3.04357">
        <ele>936.20001220703</ele>
        <time>2020-10-02T07:54:56.000Z</time>
      </trkpt>
      <trkpt lat="44.06385" lon="3.04352">
        <ele>935.40002441406</ele>
        <time>2020-10-02T07:54:57.000Z</time>
      </trkpt>
      <trkpt lat="44.0639" lon="3.04347">
        <ele>934.20001220703</ele>
        <time>2020-10-02T07:54:58.000Z</time>
      </trkpt>
      <trkpt lat="44.06395" lon="3.04343">
        <ele>933.20001220703</ele>
        <time>2020-10-02T07:54:59.000Z</time>
      </trkpt>
      <trkpt lat="44.064" lon="3.04341">
        <ele>932.40002441406</ele>
        <time>2020-10-02T07:55:00.000Z</time>
      </trkpt>
      <trkpt lat="44.06406" lon="3.04341">
        <ele>931.59997558594</ele>
        <time>2020-10-02T07:55:01.000Z</time>
      </trkpt>
      <trkpt lat="44.06411" lon="3.04343">
        <ele>930.59997558594</ele>
        <time>2020-10-02T07:55:02.000Z</time>
      </trkpt>
      <trkpt lat="44.06416" lon="3.04348">
        <ele>929.40002441406</ele>
        <time>2020-10-02T07:55:03.000Z</time>
      </trkpt>
      <trkpt lat="44.0642" lon="3.04353">
        <ele>928</ele>
        <time>2020-10-02T07:55:04.000Z</time>
      </trkpt>
      <trkpt lat="44.06423" lon="3.0436">
        <ele>926.20001220703</ele>
        <time>2020-10-02T07:55:05.000Z</time>
      </trkpt>
      <trkpt lat="44.06425" lon="3.04367">
        <ele>924.79998779297</ele>
        <time>2020-10-02T07:55:06.000Z</time>
      </trkpt>
      <trkpt lat="44.06425" lon="3.04374">
        <ele>923.59997558594</ele>
        <time>2020-10-02T07:55:07.000Z</time>
      </trkpt>
      <trkpt lat="44.06423" lon="3.0439">
        <ele>921.40002441406</ele>
        <time>2020-10-02T07:55:09.000Z</time>
      </trkpt>
      <trkpt lat="44.06425" lon="3.04399">
        <ele>919.79998779297</ele>
        <time>2020-10-02T07:55:11.000Z</time>
      </trkpt>
      <trkpt lat="44.06428" lon="3.044">
        <ele>918.40002441406</ele>
        <time>2020-10-02T07:55:12.000Z</time>
      </trkpt>
      <trkpt lat="44.06436" lon="3.04397">
        <ele>917.40002441406</ele>
        <time>2020-10-02T07:55:14.000Z</time>
      </trkpt>
      <trkpt lat="44.06439" lon="3.04393">
        <ele>917</ele>
        <time>2020-10-02T07:55:15.000Z</time>
      </trkpt>
      <trkpt lat="44.06444" lon="3.04383">
        <ele>915.20001220703</ele>
        <time>2020-10-02T07:55:18.000Z</time>
      </trkpt>
      <trkpt lat="44.06445" lon="3.04381">
        <ele>914</ele>
        <time>2020-10-02T07:55:19.000Z</time>
      </trkpt>
      <trkpt lat="44.0645" lon="3.04376">
        <ele>912</ele>
        <time>2020-10-02T07:55:21.000Z</time>
      </trkpt>
      <trkpt lat="44.06452" lon="3.04376">
        <ele>911</ele>
        <time>2020-10-02T07:55:22.000Z</time>
      </trkpt>
      <trkpt lat="44.06456" lon="3.04378">
        <ele>910.40002441406</ele>
        <time>2020-10-02T07:55:23.000Z</time>
      </trkpt>
      <trkpt lat="44.06464" lon="3.04383">
        <ele>908.59997558594</ele>
        <time>2020-10-02T07:55:25.000Z</time>
      </trkpt>
      <trkpt lat="44.06468" lon="3.04384">
        <ele>907.59997558594</ele>
        <time>2020-10-02T07:55:26.000Z</time>
      </trkpt>
      <trkpt lat="44.06473" lon="3.04383">
        <ele>906.59997558594</ele>
        <time>2020-10-02T07:55:27.000Z</time>
      </trkpt>
      <trkpt lat="44.06479" lon="3.0438">
        <ele>905.40002441406</ele>
        <time>2020-10-02T07:55:29.000Z</time>
      </trkpt>
      <trkpt lat="44.0648" lon="3.04379">
        <ele>904</ele>
        <time>2020-10-02T07:55:30.000Z</time>
      </trkpt>
      <trkpt lat="44.06482" lon="3.04378">
        <ele>902.79998779297</ele>
        <time>2020-10-02T07:55:31.000Z</time>
      </trkpt>
      <trkpt lat="44.06484" lon="3.04375">
        <ele>901.59997558594</ele>
        <time>2020-10-02T07:55:34.000Z</time>
      </trkpt>
      <trkpt lat="44.06484" lon="3.04374">
        <ele>901.59997558594</ele>
        <time>2020-10-02T07:55:35.000Z</time>
      </trkpt>
      <trkpt lat="44.06486" lon="3.0437">
        <ele>901.59997558594</ele>
        <time>2020-10-02T07:55:41.000Z</time>
      </trkpt>
      <trkpt lat="44.06488" lon="3.04366">
        <ele>902</ele>
        <time>2020-10-02T07:55:43.000Z</time>
      </trkpt>
      <trkpt lat="44.06496" lon="3.04353">
        <ele>902</ele>
        <time>2020-10-02T07:55:48.000Z</time>
      </trkpt>
      <trkpt lat="44.0651" lon="3.04344">
        <ele>902</ele>
        <time>2020-10-02T07:55:54.000Z</time>
      </trkpt>
      <trkpt lat="44.06515" lon="3.04336">
        <ele>900.59997558594</ele>
        <time>2020-10-02T07:55:56.000Z</time>
      </trkpt>
      <trkpt lat="44.06517" lon="3.04331">
        <ele>899.20001220703</ele>
        <time>2020-10-02T07:55:57.000Z</time>
      </trkpt>
      <trkpt lat="44.06519" lon="3.04328">
        <ele>898</ele>
        <time>2020-10-02T07:55:58.000Z</time>
      </trkpt>
      <trkpt lat="44.06522" lon="3.04324">
        <ele>896.59997558594</ele>
        <time>2020-10-02T07:55:59.000Z</time>
      </trkpt>
      <trkpt lat="44.06525" lon="3.0432">
        <ele>895</ele>
        <time>2020-10-02T07:56:00.000Z</time>
      </trkpt>
      <trkpt lat="44.06528" lon="3.04316">
        <ele>893.79998779297</ele>
        <time>2020-10-02T07:56:01.000Z</time>
      </trkpt>
      <trkpt lat="44.0653" lon="3.04311">
        <ele>892.59997558594</ele>
        <time>2020-10-02T07:56:02.000Z</time>
      </trkpt>
      <trkpt lat="44.06532" lon="3.04307">
        <ele>891.59997558594</ele>
        <time>2020-10-02T07:56:03.000Z</time>
      </trkpt>
      <trkpt lat="44.06536" lon="3.04302">
        <ele>890.79998779297</ele>
        <time>2020-10-02T07:56:04.000Z</time>
      </trkpt>
      <trkpt lat="44.06537" lon="3.04297">
        <ele>890</ele>
        <time>2020-10-02T07:56:05.000Z</time>
      </trkpt>
      <trkpt lat="44.06539" lon="3.04292">
        <ele>888.79998779297</ele>
        <time>2020-10-02T07:56:06.000Z</time>
      </trkpt>
      <trkpt lat="44.06541" lon="3.04287">
        <ele>887.59997558594</ele>
        <time>2020-10-02T07:56:07.000Z</time>
      </trkpt>
      <trkpt lat="44.06543" lon="3.04284">
        <ele>886.59997558594</ele>
        <time>2020-10-02T07:56:08.000Z</time>
      </trkpt>
      <trkpt lat="44.06544" lon="3.04282">
        <ele>885.79998779297</ele>
        <time>2020-10-02T07:56:09.000Z</time>
      </trkpt>
      <trkpt lat="44.06546" lon="3.04283">
        <ele>885</ele>
        <time>2020-10-02T07:56:10.000Z</time>
      </trkpt>
      <trkpt lat="44.06548" lon="3.04286">
        <ele>882.59997558594</ele>
        <time>2020-10-02T07:56:11.000Z</time>
      </trkpt>
      <trkpt lat="44.06549" lon="3.04289">
        <ele>881.40002441406</ele>
        <time>2020-10-02T07:56:12.000Z</time>
      </trkpt>
      <trkpt lat="44.06552" lon="3.04291">
        <ele>879.79998779297</ele>
        <time>2020-10-02T07:56:13.000Z</time>
      </trkpt>
      <trkpt lat="44.06553" lon="3.04293">
        <ele>878.59997558594</ele>
        <time>2020-10-02T07:56:14.000Z</time>
      </trkpt>
      <trkpt lat="44.06555" lon="3.04293">
        <ele>877.59997558594</ele>
        <time>2020-10-02T07:56:15.000Z</time>
      </trkpt>
      <trkpt lat="44.06556" lon="3.04292">
        <ele>876.79998779297</ele>
        <time>2020-10-02T07:56:16.000Z</time>
      </trkpt>
      <trkpt lat="44.06558" lon="3.0429">
        <ele>876.40002441406</ele>
        <time>2020-10-02T07:56:17.000Z</time>
      </trkpt>
      <trkpt lat="44.06561" lon="3.04289">
        <ele>875</ele>
        <time>2020-10-02T07:56:20.000Z</time>
      </trkpt>
      <trkpt lat="44.06563" lon="3.0429">
        <ele>874.40002441406</ele>
        <time>2020-10-02T07:56:21.000Z</time>
      </trkpt>
      <trkpt lat="44.06564" lon="3.04293">
        <ele>873.40002441406</ele>
        <time>2020-10-02T07:56:22.000Z</time>
      </trkpt>
      <trkpt lat="44.06568" lon="3.04297">
        <ele>872</ele>
        <time>2020-10-02T07:56:24.000Z</time>
      </trkpt>
      <trkpt lat="44.06571" lon="3.04298">
        <ele>871.40002441406</ele>
        <time>2020-10-02T07:56:25.000Z</time>
      </trkpt>
      <trkpt lat="44.06575" lon="3.04298">
        <ele>870.79998779297</ele>
        <time>2020-10-02T07:56:26.000Z</time>
      </trkpt>
      <trkpt lat="44.06589" lon="3.04299">
        <ele>869.40002441406</ele>
        <time>2020-10-02T07:56:28.000Z</time>
      </trkpt>
      <trkpt lat="44.06595" lon="3.04299">
        <ele>868.79998779297</ele>
        <time>2020-10-02T07:56:29.000Z</time>
      </trkpt>
      <trkpt lat="44.066" lon="3.043">
        <ele>868</ele>
        <time>2020-10-02T07:56:30.000Z</time>
      </trkpt>
      <trkpt lat="44.06602" lon="3.04299">
        <ele>867</ele>
        <time>2020-10-02T07:56:31.000Z</time>
      </trkpt>
      <trkpt lat="44.06604" lon="3.04299">
        <ele>866.20001220703</ele>
        <time>2020-10-02T07:56:32.000Z</time>
      </trkpt>
      <trkpt lat="44.06605" lon="3.04299">
        <ele>865.20001220703</ele>
        <time>2020-10-02T07:56:33.000Z</time>
      </trkpt>
      <trkpt lat="44.06605" lon="3.043">
        <ele>863.79998779297</ele>
        <time>2020-10-02T07:56:34.000Z</time>
      </trkpt>
      <trkpt lat="44.06605" lon="3.04301">
        <ele>862.40002441406</ele>
        <time>2020-10-02T07:56:35.000Z</time>
      </trkpt>
      <trkpt lat="44.06605" lon="3.04302">
        <ele>861.40002441406</ele>
        <time>2020-10-02T07:56:37.000Z</time>
      </trkpt>
      <trkpt lat="44.06606" lon="3.04303">
        <ele>861.20001220703</ele>
        <time>2020-10-02T07:56:38.000Z</time>
      </trkpt>
      <trkpt lat="44.06606" lon="3.04303">
        <ele>860.79998779297</ele>
        <time>2020-10-02T07:56:58.000Z</time>
      </trkpt>
      <trkpt lat="44.06606" lon="3.04303">
        <ele>860.40002441406</ele>
        <time>2020-10-02T07:57:23.000Z</time>
      </trkpt>
      <trkpt lat="44.06606" lon="3.04303">
        <ele>860</ele>
        <time>2020-10-02T07:57:27.000Z</time>
      </trkpt>
      <trkpt lat="44.06606" lon="3.04303">
        <ele>861</ele>
        <time>2020-10-02T07:57:54.000Z</time>
      </trkpt>
      <trkpt lat="44.06606" lon="3.04302">
        <ele>860.40002441406</ele>
        <time>2020-10-02T07:58:20.000Z</time>
      </trkpt>
      <trkpt lat="44.06606" lon="3.04302">
        <ele>860.59997558594</ele>
        <time>2020-10-02T07:58:47.000Z</time>
      </trkpt>
      <trkpt lat="44.06606" lon="3.04302">
        <ele>861</ele>
        <time>2020-10-02T07:59:27.000Z</time>
      </trkpt>
      <trkpt lat="44.06606" lon="3.04302">
        <ele>861</ele>
        <time>2020-10-02T07:59:47.000Z</time>
      </trkpt>
      <trkpt lat="44.06606" lon="3.04302">
        <ele>861</ele>
        <time>2020-10-02T08:00:02.000Z</time>
      </trkpt>
      <trkpt lat="44.06607" lon="3.04306">
        <ele>861</ele>
        <time>2020-10-02T08:00:12.000Z</time>
      </trkpt>
      <trkpt lat="44.06611" lon="3.04312">
        <ele>861</ele>
        <time>2020-10-02T08:00:14.000Z</time>
      </trkpt>
      <trkpt lat="44.06625" lon="3.0432">
        <ele>861</ele>
        <time>2020-10-02T08:00:17.000Z</time>
      </trkpt>
      <trkpt lat="44.06631" lon="3.04323">
        <ele>861</ele>
        <time>2020-10-02T08:00:18.000Z</time>
      </trkpt>
      <trkpt lat="44.06654" lon="3.04336">
        <ele>859.40002441406</ele>
        <time>2020-10-02T08:00:22.000Z</time>
      </trkpt>
      <trkpt lat="44.0666" lon="3.04338">
        <ele>858.59997558594</ele>
        <time>2020-10-02T08:00:23.000Z</time>
      </trkpt>
      <trkpt lat="44.06664" lon="3.04339">
        <ele>857.79998779297</ele>
        <time>2020-10-02T08:00:24.000Z</time>
      </trkpt>
      <trkpt lat="44.06671" lon="3.04337">
        <ele>855.79998779297</ele>
        <time>2020-10-02T08:00:26.000Z</time>
      </trkpt>
      <trkpt lat="44.06676" lon="3.0433">
        <ele>853.79998779297</ele>
        <time>2020-10-02T08:00:28.000Z</time>
      </trkpt>
      <trkpt lat="44.0668" lon="3.04326">
        <ele>853.20001220703</ele>
        <time>2020-10-02T08:00:29.000Z</time>
      </trkpt>
      <trkpt lat="44.06685" lon="3.04321">
        <ele>852.40002441406</ele>
        <time>2020-10-02T08:00:30.000Z</time>
      </trkpt>
      <trkpt lat="44.06694" lon="3.04314">
        <ele>851.40002441406</ele>
        <time>2020-10-02T08:00:32.000Z</time>
      </trkpt>
      <trkpt lat="44.06705" lon="3.0431">
        <ele>850.59997558594</ele>
        <time>2020-10-02T08:00:34.000Z</time>
      </trkpt>
      <trkpt lat="44.06711" lon="3.04309">
        <ele>850</ele>
        <time>2020-10-02T08:00:35.000Z</time>
      </trkpt>
      <trkpt lat="44.06722" lon="3.04309">
        <ele>848.59997558594</ele>
        <time>2020-10-02T08:00:37.000Z</time>
      </trkpt>
      <trkpt lat="44.06726" lon="3.04309">
        <ele>848.20001220703</ele>
        <time>2020-10-02T08:00:38.000Z</time>
      </trkpt>
      <trkpt lat="44.06735" lon="3.04304">
        <ele>847.40002441406</ele>
        <time>2020-10-02T08:00:40.000Z</time>
      </trkpt>
      <trkpt lat="44.06744" lon="3.04297">
        <ele>846.79998779297</ele>
        <time>2020-10-02T08:00:42.000Z</time>
      </trkpt>
      <trkpt lat="44.06749" lon="3.04292">
        <ele>846.20001220703</ele>
        <time>2020-10-02T08:00:43.000Z</time>
      </trkpt>
      <trkpt lat="44.06765" lon="3.04277">
        <ele>845</ele>
        <time>2020-10-02T08:00:46.000Z</time>
      </trkpt>
      <trkpt lat="44.06771" lon="3.04271">
        <ele>844.59997558594</ele>
        <time>2020-10-02T08:00:47.000Z</time>
      </trkpt>
      <trkpt lat="44.06782" lon="3.04262">
        <ele>843.59997558594</ele>
        <time>2020-10-02T08:00:49.000Z</time>
      </trkpt>
      <trkpt lat="44.06795" lon="3.04257">
        <ele>842.20001220703</ele>
        <time>2020-10-02T08:00:51.000Z</time>
      </trkpt>
      <trkpt lat="44.06807" lon="3.04249">
        <ele>840.79998779297</ele>
        <time>2020-10-02T08:00:54.000Z</time>
      </trkpt>
      <trkpt lat="44.06819" lon="3.04242">
        <ele>840.20001220703</ele>
        <time>2020-10-02T08:00:56.000Z</time>
      </trkpt>
      <trkpt lat="44.06831" lon="3.04239">
        <ele>839.40002441406</ele>
        <time>2020-10-02T08:00:58.000Z</time>
      </trkpt>
      <trkpt lat="44.06841" lon="3.04235">
        <ele>837.59997558594</ele>
        <time>2020-10-02T08:01:00.000Z</time>
      </trkpt>
      <trkpt lat="44.06844" lon="3.04233">
        <ele>837.20001220703</ele>
        <time>2020-10-02T08:01:01.000Z</time>
      </trkpt>
      <trkpt lat="44.06859" lon="3.04234">
        <ele>837</ele>
        <time>2020-10-02T08:01:05.000Z</time>
      </trkpt>
      <trkpt lat="44.06871" lon="3.04238">
        <ele>837.40002441406</ele>
        <time>2020-10-02T08:01:11.000Z</time>
      </trkpt>
      <trkpt lat="44.06876" lon="3.04241">
        <ele>838.59997558594</ele>
        <time>2020-10-02T08:01:16.000Z</time>
      </trkpt>
      <trkpt lat="44.06878" lon="3.04244">
        <ele>840</ele>
        <time>2020-10-02T08:01:20.000Z</time>
      </trkpt>
      <trkpt lat="44.06878" lon="3.04244">
        <ele>840.20001220703</ele>
        <time>2020-10-02T08:01:21.000Z</time>
      </trkpt>
      <trkpt lat="44.06882" lon="3.04248">
        <ele>840.79998779297</ele>
        <time>2020-10-02T08:01:32.000Z</time>
      </trkpt>
      <trkpt lat="44.06896" lon="3.04252">
        <ele>840</ele>
        <time>2020-10-02T08:01:38.000Z</time>
      </trkpt>
      <trkpt lat="44.06906" lon="3.04254">
        <ele>839.59997558594</ele>
        <time>2020-10-02T08:01:40.000Z</time>
      </trkpt>
      <trkpt lat="44.06912" lon="3.04253">
        <ele>839.40002441406</ele>
        <time>2020-10-02T08:01:41.000Z</time>
      </trkpt>
      <trkpt lat="44.06936" lon="3.04261">
        <ele>838.79998779297</ele>
        <time>2020-10-02T08:01:44.000Z</time>
      </trkpt>
      <trkpt lat="44.06952" lon="3.04275">
        <ele>837.40002441406</ele>
        <time>2020-10-02T08:01:47.000Z</time>
      </trkpt>
      <trkpt lat="44.06963" lon="3.04279">
        <ele>836</ele>
        <time>2020-10-02T08:01:49.000Z</time>
      </trkpt>
      <trkpt lat="44.06973" lon="3.04279">
        <ele>834.40002441406</ele>
        <time>2020-10-02T08:01:51.000Z</time>
      </trkpt>
      <trkpt lat="44.06982" lon="3.04276">
        <ele>833</ele>
        <time>2020-10-02T08:01:53.000Z</time>
      </trkpt>
      <trkpt lat="44.06991" lon="3.04269">
        <ele>830.79998779297</ele>
        <time>2020-10-02T08:01:55.000Z</time>
      </trkpt>
      <trkpt lat="44.06996" lon="3.04264">
        <ele>829.59997558594</ele>
        <time>2020-10-02T08:01:56.000Z</time>
      </trkpt>
      <trkpt lat="44.07008" lon="3.04257">
        <ele>827.59997558594</ele>
        <time>2020-10-02T08:01:58.000Z</time>
      </trkpt>
      <trkpt lat="44.07021" lon="3.04251">
        <ele>824</ele>
        <time>2020-10-02T08:02:00.000Z</time>
      </trkpt>
      <trkpt lat="44.07027" lon="3.04247">
        <ele>823</ele>
        <time>2020-10-02T08:02:01.000Z</time>
      </trkpt>
      <trkpt lat="44.07042" lon="3.04238">
        <ele>821.59997558594</ele>
        <time>2020-10-02T08:02:03.000Z</time>
      </trkpt>
      <trkpt lat="44.07049" lon="3.04234">
        <ele>820.20001220703</ele>
        <time>2020-10-02T08:02:04.000Z</time>
      </trkpt>
      <trkpt lat="44.07057" lon="3.04229">
        <ele>818.59997558594</ele>
        <time>2020-10-02T08:02:05.000Z</time>
      </trkpt>
      <trkpt lat="44.07064" lon="3.04226">
        <ele>816.79998779297</ele>
        <time>2020-10-02T08:02:06.000Z</time>
      </trkpt>
      <trkpt lat="44.07072" lon="3.04222">
        <ele>815.59997558594</ele>
        <time>2020-10-02T08:02:07.000Z</time>
      </trkpt>
      <trkpt lat="44.07088" lon="3.04216">
        <ele>813.40002441406</ele>
        <time>2020-10-02T08:02:09.000Z</time>
      </trkpt>
      <trkpt lat="44.07095" lon="3.04213">
        <ele>812</ele>
        <time>2020-10-02T08:02:10.000Z</time>
      </trkpt>
      <trkpt lat="44.07103" lon="3.04211">
        <ele>809.59997558594</ele>
        <time>2020-10-02T08:02:11.000Z</time>
      </trkpt>
      <trkpt lat="44.07111" lon="3.0421">
        <ele>807.59997558594</ele>
        <time>2020-10-02T08:02:12.000Z</time>
      </trkpt>
      <trkpt lat="44.07118" lon="3.04208">
        <ele>806</ele>
        <time>2020-10-02T08:02:13.000Z</time>
      </trkpt>
      <trkpt lat="44.07125" lon="3.04205">
        <ele>804.40002441406</ele>
        <time>2020-10-02T08:02:14.000Z</time>
      </trkpt>
      <trkpt lat="44.07132" lon="3.04202">
        <ele>802</ele>
        <time>2020-10-02T08:02:15.000Z</time>
      </trkpt>
      <trkpt lat="44.07138" lon="3.04201">
        <ele>799.79998779297</ele>
        <time>2020-10-02T08:02:16.000Z</time>
      </trkpt>
      <trkpt lat="44.07145" lon="3.04199">
        <ele>798</ele>
        <time>2020-10-02T08:02:17.000Z</time>
      </trkpt>
      <trkpt lat="44.07153" lon="3.04196">
        <ele>796.20001220703</ele>
        <time>2020-10-02T08:02:18.000Z</time>
      </trkpt>
      <trkpt lat="44.07161" lon="3.04194">
        <ele>794.20001220703</ele>
        <time>2020-10-02T08:02:19.000Z</time>
      </trkpt>
      <trkpt lat="44.07167" lon="3.0419">
        <ele>792.40002441406</ele>
        <time>2020-10-02T08:02:20.000Z</time>
      </trkpt>
      <trkpt lat="44.07174" lon="3.04188">
        <ele>790.79998779297</ele>
        <time>2020-10-02T08:02:21.000Z</time>
      </trkpt>
      <trkpt lat="44.0718" lon="3.04185">
        <ele>789.79998779297</ele>
        <time>2020-10-02T08:02:22.000Z</time>
      </trkpt>
      <trkpt lat="44.07185" lon="3.04182">
        <ele>788.79998779297</ele>
        <time>2020-10-02T08:02:23.000Z</time>
      </trkpt>
      <trkpt lat="44.07191" lon="3.04178">
        <ele>787.40002441406</ele>
        <time>2020-10-02T08:02:24.000Z</time>
      </trkpt>
      <trkpt lat="44.07197" lon="3.04175">
        <ele>785.59997558594</ele>
        <time>2020-10-02T08:02:25.000Z</time>
      </trkpt>
      <trkpt lat="44.07204" lon="3.04173">
        <ele>784.20001220703</ele>
        <time>2020-10-02T08:02:26.000Z</time>
      </trkpt>
      <trkpt lat="44.07212" lon="3.0417">
        <ele>782.79998779297</ele>
        <time>2020-10-02T08:02:27.000Z</time>
      </trkpt>
      <trkpt lat="44.07218" lon="3.04167">
        <ele>780.20001220703</ele>
        <time>2020-10-02T08:02:28.000Z</time>
      </trkpt>
      <trkpt lat="44.07224" lon="3.04163">
        <ele>778.79998779297</ele>
        <time>2020-10-02T08:02:29.000Z</time>
      </trkpt>
      <trkpt lat="44.07231" lon="3.04159">
        <ele>777.40002441406</ele>
        <time>2020-10-02T08:02:30.000Z</time>
      </trkpt>
      <trkpt lat="44.07236" lon="3.04154">
        <ele>776</ele>
        <time>2020-10-02T08:02:31.000Z</time>
      </trkpt>
      <trkpt lat="44.07243" lon="3.04149">
        <ele>774.59997558594</ele>
        <time>2020-10-02T08:02:32.000Z</time>
      </trkpt>
      <trkpt lat="44.07249" lon="3.04144">
        <ele>772.40002441406</ele>
        <time>2020-10-02T08:02:33.000Z</time>
      </trkpt>
      <trkpt lat="44.07254" lon="3.04139">
        <ele>770.40002441406</ele>
        <time>2020-10-02T08:02:34.000Z</time>
      </trkpt>
      <trkpt lat="44.07259" lon="3.04133">
        <ele>768.40002441406</ele>
        <time>2020-10-02T08:02:35.000Z</time>
      </trkpt>
      <trkpt lat="44.07264" lon="3.04127">
        <ele>766.79998779297</ele>
        <time>2020-10-02T08:02:36.000Z</time>
      </trkpt>
      <trkpt lat="44.07269" lon="3.04121">
        <ele>765.20001220703</ele>
        <time>2020-10-02T08:02:37.000Z</time>
      </trkpt>
      <trkpt lat="44.07273" lon="3.04113">
        <ele>763.40002441406</ele>
        <time>2020-10-02T08:02:38.000Z</time>
      </trkpt>
      <trkpt lat="44.07278" lon="3.04106">
        <ele>761.59997558594</ele>
        <time>2020-10-02T08:02:39.000Z</time>
      </trkpt>
      <trkpt lat="44.07282" lon="3.041">
        <ele>759.79998779297</ele>
        <time>2020-10-02T08:02:40.000Z</time>
      </trkpt>
      <trkpt lat="44.07286" lon="3.04094">
        <ele>758.40002441406</ele>
        <time>2020-10-02T08:02:41.000Z</time>
      </trkpt>
      <trkpt lat="44.0729" lon="3.04087">
        <ele>756.59997558594</ele>
        <time>2020-10-02T08:02:42.000Z</time>
      </trkpt>
      <trkpt lat="44.07293" lon="3.04081">
        <ele>755.40002441406</ele>
        <time>2020-10-02T08:02:43.000Z</time>
      </trkpt>
      <trkpt lat="44.07296" lon="3.04074">
        <ele>753.79998779297</ele>
        <time>2020-10-02T08:02:44.000Z</time>
      </trkpt>
      <trkpt lat="44.07298" lon="3.04068">
        <ele>752.40002441406</ele>
        <time>2020-10-02T08:02:45.000Z</time>
      </trkpt>
      <trkpt lat="44.073" lon="3.04063">
        <ele>751.20001220703</ele>
        <time>2020-10-02T08:02:46.000Z</time>
      </trkpt>
      <trkpt lat="44.07301" lon="3.04059">
        <ele>749.79998779297</ele>
        <time>2020-10-02T08:02:47.000Z</time>
      </trkpt>
      <trkpt lat="44.07302" lon="3.04054">
        <ele>748.20001220703</ele>
        <time>2020-10-02T08:02:48.000Z</time>
      </trkpt>
      <trkpt lat="44.07303" lon="3.04051">
        <ele>746.59997558594</ele>
        <time>2020-10-02T08:02:49.000Z</time>
      </trkpt>
      <trkpt lat="44.07305" lon="3.04046">
        <ele>745.20001220703</ele>
        <time>2020-10-02T08:02:50.000Z</time>
      </trkpt>
      <trkpt lat="44.07308" lon="3.04042">
        <ele>744</ele>
        <time>2020-10-02T08:02:51.000Z</time>
      </trkpt>
      <trkpt lat="44.0731" lon="3.04041">
        <ele>742.79998779297</ele>
        <time>2020-10-02T08:02:52.000Z</time>
      </trkpt>
      <trkpt lat="44.07316" lon="3.04046">
        <ele>741.40002441406</ele>
        <time>2020-10-02T08:02:54.000Z</time>
      </trkpt>
      <trkpt lat="44.07325" lon="3.04051">
        <ele>740.20001220703</ele>
        <time>2020-10-02T08:02:56.000Z</time>
      </trkpt>
      <trkpt lat="44.07331" lon="3.04054">
        <ele>739.40002441406</ele>
        <time>2020-10-02T08:02:57.000Z</time>
      </trkpt>
      <trkpt lat="44.07336" lon="3.04056">
        <ele>739</ele>
        <time>2020-10-02T08:02:58.000Z</time>
      </trkpt>
      <trkpt lat="44.07339" lon="3.04066">
        <ele>737.59997558594</ele>
        <time>2020-10-02T08:03:00.000Z</time>
      </trkpt>
      <trkpt lat="44.07338" lon="3.04076">
        <ele>735.59997558594</ele>
        <time>2020-10-02T08:03:02.000Z</time>
      </trkpt>
      <trkpt lat="44.07337" lon="3.04081">
        <ele>734</ele>
        <time>2020-10-02T08:03:03.000Z</time>
      </trkpt>
      <trkpt lat="44.07336" lon="3.04086">
        <ele>732.40002441406</ele>
        <time>2020-10-02T08:03:04.000Z</time>
      </trkpt>
      <trkpt lat="44.07333" lon="3.04092">
        <ele>731.20001220703</ele>
        <time>2020-10-02T08:03:06.000Z</time>
      </trkpt>
      <trkpt lat="44.07327" lon="3.04105">
        <ele>730.79998779297</ele>
        <time>2020-10-02T08:03:10.000Z</time>
      </trkpt>
      <trkpt lat="44.0732" lon="3.04115">
        <ele>730.79998779297</ele>
        <time>2020-10-02T08:03:16.000Z</time>
      </trkpt>
      <trkpt lat="44.07319" lon="3.04113">
        <ele>731</ele>
        <time>2020-10-02T08:03:25.000Z</time>
      </trkpt>
      <trkpt lat="44.07318" lon="3.04112">
        <ele>731</ele>
        <time>2020-10-02T08:03:46.000Z</time>
      </trkpt>
      <trkpt lat="44.07319" lon="3.04112">
        <ele>731.20001220703</ele>
        <time>2020-10-02T08:04:00.000Z</time>
      </trkpt>
      <trkpt lat="44.0732" lon="3.04112">
        <ele>731.59997558594</ele>
        <time>2020-10-02T08:04:21.000Z</time>
      </trkpt>
      <trkpt lat="44.07317" lon="3.04119">
        <ele>731.59997558594</ele>
        <time>2020-10-02T08:04:39.000Z</time>
      </trkpt>
      <trkpt lat="44.07312" lon="3.04137">
        <ele>731.59997558594</ele>
        <time>2020-10-02T08:04:43.000Z</time>
      </trkpt>
      <trkpt lat="44.07304" lon="3.04175">
        <ele>731.59997558594</ele>
        <time>2020-10-02T08:04:47.000Z</time>
      </trkpt>
      <trkpt lat="44.07293" lon="3.04209">
        <ele>730.20001220703</ele>
        <time>2020-10-02T08:04:51.000Z</time>
      </trkpt>
      <trkpt lat="44.07292" lon="3.04215">
        <ele>729.79998779297</ele>
        <time>2020-10-02T08:04:52.000Z</time>
      </trkpt>
      <trkpt lat="44.07291" lon="3.04222">
        <ele>728.59997558594</ele>
        <time>2020-10-02T08:04:53.000Z</time>
      </trkpt>
      <trkpt lat="44.07291" lon="3.04229">
        <ele>726.40002441406</ele>
        <time>2020-10-02T08:04:54.000Z</time>
      </trkpt>
      <trkpt lat="44.07288" lon="3.04242">
        <ele>725.40002441406</ele>
        <time>2020-10-02T08:04:56.000Z</time>
      </trkpt>
      <trkpt lat="44.07272" lon="3.04266">
        <ele>724.20001220703</ele>
        <time>2020-10-02T08:05:00.000Z</time>
      </trkpt>
      <trkpt lat="44.07264" lon="3.04275">
        <ele>723</ele>
        <time>2020-10-02T08:05:02.000Z</time>
      </trkpt>
      <trkpt lat="44.07257" lon="3.04285">
        <ele>722</ele>
        <time>2020-10-02T08:05:04.000Z</time>
      </trkpt>
      <trkpt lat="44.07254" lon="3.0429">
        <ele>721.79998779297</ele>
        <time>2020-10-02T08:05:05.000Z</time>
      </trkpt>
      <trkpt lat="44.07247" lon="3.04311">
        <ele>721</ele>
        <time>2020-10-02T08:05:09.000Z</time>
      </trkpt>
      <trkpt lat="44.07248" lon="3.04336">
        <ele>719.79998779297</ele>
        <time>2020-10-02T08:05:13.000Z</time>
      </trkpt>
      <trkpt lat="44.07249" lon="3.04342">
        <ele>719.59997558594</ele>
        <time>2020-10-02T08:05:14.000Z</time>
      </trkpt>
      <trkpt lat="44.07253" lon="3.04363">
        <ele>719</ele>
        <time>2020-10-02T08:05:17.000Z</time>
      </trkpt>
      <trkpt lat="44.07254" lon="3.0437">
        <ele>718.59997558594</ele>
        <time>2020-10-02T08:05:18.000Z</time>
      </trkpt>
      <trkpt lat="44.07253" lon="3.04377">
        <ele>718.20001220703</ele>
        <time>2020-10-02T08:05:19.000Z</time>
      </trkpt>
      <trkpt lat="44.07252" lon="3.04382">
        <ele>717.20001220703</ele>
        <time>2020-10-02T08:05:20.000Z</time>
      </trkpt>
      <trkpt lat="44.0725" lon="3.04387">
        <ele>715.59997558594</ele>
        <time>2020-10-02T08:05:21.000Z</time>
      </trkpt>
      <trkpt lat="44.07248" lon="3.04389">
        <ele>714.40002441406</ele>
        <time>2020-10-02T08:05:22.000Z</time>
      </trkpt>
      <trkpt lat="44.07247" lon="3.0439">
        <ele>712</ele>
        <time>2020-10-02T08:05:23.000Z</time>
      </trkpt>
      <trkpt lat="44.07246" lon="3.04391">
        <ele>710.40002441406</ele>
        <time>2020-10-02T08:05:24.000Z</time>
      </trkpt>
      <trkpt lat="44.07245" lon="3.04392">
        <ele>709.40002441406</ele>
        <time>2020-10-02T08:05:25.000Z</time>
      </trkpt>
      <trkpt lat="44.07244" lon="3.04392">
        <ele>709</ele>
        <time>2020-10-02T08:05:26.000Z</time>
      </trkpt>
      <trkpt lat="44.07244" lon="3.04392">
        <ele>708.79998779297</ele>
        <time>2020-10-02T08:05:27.000Z</time>
      </trkpt>
      <trkpt lat="44.07243" lon="3.04392">
        <ele>709.20001220703</ele>
        <time>2020-10-02T08:05:38.000Z</time>
      </trkpt>
      <trkpt lat="44.07242" lon="3.04398">
        <ele>709.79998779297</ele>
        <time>2020-10-02T08:06:02.000Z</time>
      </trkpt>
      <trkpt lat="44.0724" lon="3.04413">
        <ele>709.59997558594</ele>
        <time>2020-10-02T08:06:05.000Z</time>
      </trkpt>
      <trkpt lat="44.07237" lon="3.0442">
        <ele>709.59997558594</ele>
        <time>2020-10-02T08:06:06.000Z</time>
      </trkpt>
      <trkpt lat="44.07226" lon="3.04438">
        <ele>709.59997558594</ele>
        <time>2020-10-02T08:06:09.000Z</time>
      </trkpt>
      <trkpt lat="44.07222" lon="3.04445">
        <ele>709.40002441406</ele>
        <time>2020-10-02T08:06:10.000Z</time>
      </trkpt>
      <trkpt lat="44.07208" lon="3.04467">
        <ele>708</ele>
        <time>2020-10-02T08:06:13.000Z</time>
      </trkpt>
      <trkpt lat="44.07204" lon="3.04475">
        <ele>707.40002441406</ele>
        <time>2020-10-02T08:06:14.000Z</time>
      </trkpt>
      <trkpt lat="44.07198" lon="3.04484">
        <ele>706.79998779297</ele>
        <time>2020-10-02T08:06:15.000Z</time>
      </trkpt>
      <trkpt lat="44.07186" lon="3.04501">
        <ele>705.79998779297</ele>
        <time>2020-10-02T08:06:17.000Z</time>
      </trkpt>
      <trkpt lat="44.07182" lon="3.04507">
        <ele>705.59997558594</ele>
        <time>2020-10-02T08:06:18.000Z</time>
      </trkpt>
      <trkpt lat="44.07174" lon="3.04516">
        <ele>703.79998779297</ele>
        <time>2020-10-02T08:06:21.000Z</time>
      </trkpt>
      <trkpt lat="44.07172" lon="3.04519">
        <ele>702.20001220703</ele>
        <time>2020-10-02T08:06:23.000Z</time>
      </trkpt>
      <trkpt lat="44.07171" lon="3.0452">
        <ele>701</ele>
        <time>2020-10-02T08:06:24.000Z</time>
      </trkpt>
      <trkpt lat="44.07171" lon="3.04521">
        <ele>699.59997558594</ele>
        <time>2020-10-02T08:06:26.000Z</time>
      </trkpt>
      <trkpt lat="44.07168" lon="3.04526">
        <ele>698.59997558594</ele>
        <time>2020-10-02T08:06:40.000Z</time>
      </trkpt>
      <trkpt lat="44.07156" lon="3.04534">
        <ele>698.59997558594</ele>
        <time>2020-10-02T08:06:46.000Z</time>
      </trkpt>
      <trkpt lat="44.07147" lon="3.0454">
        <ele>698.20001220703</ele>
        <time>2020-10-02T08:06:49.000Z</time>
      </trkpt>
      <trkpt lat="44.07136" lon="3.04546">
        <ele>698.20001220703</ele>
        <time>2020-10-02T08:06:53.000Z</time>
      </trkpt>
      <trkpt lat="44.07115" lon="3.04566">
        <ele>699.79998779297</ele>
        <time>2020-10-02T08:07:00.000Z</time>
      </trkpt>
      <trkpt lat="44.07117" lon="3.04576">
        <ele>700.20001220703</ele>
        <time>2020-10-02T08:07:03.000Z</time>
      </trkpt>
      <trkpt lat="44.07119" lon="3.04593">
        <ele>700.40002441406</ele>
        <time>2020-10-02T08:07:07.000Z</time>
      </trkpt>
      <trkpt lat="44.07126" lon="3.04605">
        <ele>700.40002441406</ele>
        <time>2020-10-02T08:07:10.000Z</time>
      </trkpt>
      <trkpt lat="44.0713" lon="3.0461">
        <ele>699.40002441406</ele>
        <time>2020-10-02T08:07:12.000Z</time>
      </trkpt>
      <trkpt lat="44.07132" lon="3.04614">
        <ele>698</ele>
        <time>2020-10-02T08:07:14.000Z</time>
      </trkpt>
      <trkpt lat="44.07135" lon="3.04614">
        <ele>696.79998779297</ele>
        <time>2020-10-02T08:07:15.000Z</time>
      </trkpt>
      <trkpt lat="44.07138" lon="3.04614">
        <ele>694.79998779297</ele>
        <time>2020-10-02T08:07:16.000Z</time>
      </trkpt>
      <trkpt lat="44.0714" lon="3.04616">
        <ele>693</ele>
        <time>2020-10-02T08:07:17.000Z</time>
      </trkpt>
      <trkpt lat="44.07142" lon="3.04619">
        <ele>690</ele>
        <time>2020-10-02T08:07:18.000Z</time>
      </trkpt>
      <trkpt lat="44.07144" lon="3.04623">
        <ele>688.79998779297</ele>
        <time>2020-10-02T08:07:19.000Z</time>
      </trkpt>
      <trkpt lat="44.07145" lon="3.04627">
        <ele>687.79998779297</ele>
        <time>2020-10-02T08:07:20.000Z</time>
      </trkpt>
      <trkpt lat="44.07147" lon="3.04631">
        <ele>686.59997558594</ele>
        <time>2020-10-02T08:07:21.000Z</time>
      </trkpt>
      <trkpt lat="44.07148" lon="3.04638">
        <ele>684.59997558594</ele>
        <time>2020-10-02T08:07:23.000Z</time>
      </trkpt>
      <trkpt lat="44.07148" lon="3.04646">
        <ele>683.20001220703</ele>
        <time>2020-10-02T08:07:25.000Z</time>
      </trkpt>
      <trkpt lat="44.07149" lon="3.04656">
        <ele>681.40002441406</ele>
        <time>2020-10-02T08:07:27.000Z</time>
      </trkpt>
      <trkpt lat="44.07148" lon="3.04661">
        <ele>680.20001220703</ele>
        <time>2020-10-02T08:07:28.000Z</time>
      </trkpt>
      <trkpt lat="44.07147" lon="3.04667">
        <ele>679.20001220703</ele>
        <time>2020-10-02T08:07:29.000Z</time>
      </trkpt>
      <trkpt lat="44.07145" lon="3.04672">
        <ele>678.40002441406</ele>
        <time>2020-10-02T08:07:30.000Z</time>
      </trkpt>
      <trkpt lat="44.07143" lon="3.04677">
        <ele>677.79998779297</ele>
        <time>2020-10-02T08:07:31.000Z</time>
      </trkpt>
      <trkpt lat="44.07137" lon="3.04692">
        <ele>676.40002441406</ele>
        <time>2020-10-02T08:07:34.000Z</time>
      </trkpt>
      <trkpt lat="44.07135" lon="3.04702">
        <ele>675.20001220703</ele>
        <time>2020-10-02T08:07:36.000Z</time>
      </trkpt>
      <trkpt lat="44.07133" lon="3.04707">
        <ele>674.79998779297</ele>
        <time>2020-10-02T08:07:37.000Z</time>
      </trkpt>
      <trkpt lat="44.0713" lon="3.04713">
        <ele>674.59997558594</ele>
        <time>2020-10-02T08:07:38.000Z</time>
      </trkpt>
      <trkpt lat="44.0712" lon="3.04731">
        <ele>674.20001220703</ele>
        <time>2020-10-02T08:07:41.000Z</time>
      </trkpt>
      <trkpt lat="44.07117" lon="3.04738">
        <ele>674</ele>
        <time>2020-10-02T08:07:42.000Z</time>
      </trkpt>
      <trkpt lat="44.07109" lon="3.04763">
        <ele>673.40002441406</ele>
        <time>2020-10-02T08:07:45.000Z</time>
      </trkpt>
      <trkpt lat="44.07109" lon="3.04778">
        <ele>672.59997558594</ele>
        <time>2020-10-02T08:07:47.000Z</time>
      </trkpt>
      <trkpt lat="44.07107" lon="3.04789">
        <ele>670.79998779297</ele>
        <time>2020-10-02T08:07:49.000Z</time>
      </trkpt>
      <trkpt lat="44.07103" lon="3.04792">
        <ele>669.79998779297</ele>
        <time>2020-10-02T08:07:50.000Z</time>
      </trkpt>
      <trkpt lat="44.071" lon="3.04796">
        <ele>668.40002441406</ele>
        <time>2020-10-02T08:07:51.000Z</time>
      </trkpt>
      <trkpt lat="44.07095" lon="3.04799">
        <ele>667.40002441406</ele>
        <time>2020-10-02T08:07:52.000Z</time>
      </trkpt>
      <trkpt lat="44.07086" lon="3.04813">
        <ele>665.59997558594</ele>
        <time>2020-10-02T08:07:54.000Z</time>
      </trkpt>
      <trkpt lat="44.07083" lon="3.04821">
        <ele>664.40002441406</ele>
        <time>2020-10-02T08:07:55.000Z</time>
      </trkpt>
      <trkpt lat="44.0708" lon="3.04835">
        <ele>662.79998779297</ele>
        <time>2020-10-02T08:07:57.000Z</time>
      </trkpt>
      <trkpt lat="44.0708" lon="3.04842">
        <ele>662.20001220703</ele>
        <time>2020-10-02T08:07:58.000Z</time>
      </trkpt>
      <trkpt lat="44.07079" lon="3.04848">
        <ele>661.40002441406</ele>
        <time>2020-10-02T08:07:59.000Z</time>
      </trkpt>
      <trkpt lat="44.07078" lon="3.04858">
        <ele>660</ele>
        <time>2020-10-02T08:08:01.000Z</time>
      </trkpt>
      <trkpt lat="44.07076" lon="3.04865">
        <ele>658.40002441406</ele>
        <time>2020-10-02T08:08:03.000Z</time>
      </trkpt>
      <trkpt lat="44.07075" lon="3.0487">
        <ele>657.40002441406</ele>
        <time>2020-10-02T08:08:04.000Z</time>
      </trkpt>
      <trkpt lat="44.07074" lon="3.04874">
        <ele>656.40002441406</ele>
        <time>2020-10-02T08:08:05.000Z</time>
      </trkpt>
      <trkpt lat="44.07072" lon="3.04877">
        <ele>654.59997558594</ele>
        <time>2020-10-02T08:08:06.000Z</time>
      </trkpt>
      <trkpt lat="44.07072" lon="3.04881">
        <ele>653</ele>
        <time>2020-10-02T08:08:07.000Z</time>
      </trkpt>
      <trkpt lat="44.07072" lon="3.04883">
        <ele>652</ele>
        <time>2020-10-02T08:08:08.000Z</time>
      </trkpt>
      <trkpt lat="44.07073" lon="3.04886">
        <ele>650.79998779297</ele>
        <time>2020-10-02T08:08:09.000Z</time>
      </trkpt>
      <trkpt lat="44.07075" lon="3.0489">
        <ele>649.40002441406</ele>
        <time>2020-10-02T08:08:10.000Z</time>
      </trkpt>
      <trkpt lat="44.07076" lon="3.04894">
        <ele>648.20001220703</ele>
        <time>2020-10-02T08:08:11.000Z</time>
      </trkpt>
      <trkpt lat="44.07078" lon="3.04897">
        <ele>647.20001220703</ele>
        <time>2020-10-02T08:08:12.000Z</time>
      </trkpt>
      <trkpt lat="44.07081" lon="3.04903">
        <ele>645</ele>
        <time>2020-10-02T08:08:14.000Z</time>
      </trkpt>
      <trkpt lat="44.07081" lon="3.04908">
        <ele>642.79998779297</ele>
        <time>2020-10-02T08:08:15.000Z</time>
      </trkpt>
      <trkpt lat="44.07082" lon="3.04914">
        <ele>640.59997558594</ele>
        <time>2020-10-02T08:08:17.000Z</time>
      </trkpt>
      <trkpt lat="44.07084" lon="3.04916">
        <ele>639.40002441406</ele>
        <time>2020-10-02T08:08:18.000Z</time>
      </trkpt>
      <trkpt lat="44.07086" lon="3.04918">
        <ele>638.20001220703</ele>
        <time>2020-10-02T08:08:19.000Z</time>
      </trkpt>
      <trkpt lat="44.07089" lon="3.0492">
        <ele>637</ele>
        <time>2020-10-02T08:08:20.000Z</time>
      </trkpt>
      <trkpt lat="44.07091" lon="3.04923">
        <ele>635.79998779297</ele>
        <time>2020-10-02T08:08:21.000Z</time>
      </trkpt>
      <trkpt lat="44.07094" lon="3.04926">
        <ele>634.20001220703</ele>
        <time>2020-10-02T08:08:22.000Z</time>
      </trkpt>
      <trkpt lat="44.07098" lon="3.0493">
        <ele>632.79998779297</ele>
        <time>2020-10-02T08:08:23.000Z</time>
      </trkpt>
      <trkpt lat="44.07104" lon="3.04939">
        <ele>631</ele>
        <time>2020-10-02T08:08:25.000Z</time>
      </trkpt>
      <trkpt lat="44.07105" lon="3.04943">
        <ele>630.40002441406</ele>
        <time>2020-10-02T08:08:26.000Z</time>
      </trkpt>
      <trkpt lat="44.07105" lon="3.04947">
        <ele>630</ele>
        <time>2020-10-02T08:08:27.000Z</time>
      </trkpt>
      <trkpt lat="44.07104" lon="3.04951">
        <ele>629.79998779297</ele>
        <time>2020-10-02T08:08:28.000Z</time>
      </trkpt>
      <trkpt lat="44.07104" lon="3.04961">
        <ele>628.40002441406</ele>
        <time>2020-10-02T08:08:30.000Z</time>
      </trkpt>
      <trkpt lat="44.07105" lon="3.04965">
        <ele>627.59997558594</ele>
        <time>2020-10-02T08:08:31.000Z</time>
      </trkpt>
      <trkpt lat="44.07106" lon="3.04968">
        <ele>626.59997558594</ele>
        <time>2020-10-02T08:08:32.000Z</time>
      </trkpt>
      <trkpt lat="44.07107" lon="3.04971">
        <ele>625.40002441406</ele>
        <time>2020-10-02T08:08:33.000Z</time>
      </trkpt>
      <trkpt lat="44.07107" lon="3.04974">
        <ele>624.40002441406</ele>
        <time>2020-10-02T08:08:34.000Z</time>
      </trkpt>
      <trkpt lat="44.07108" lon="3.04976">
        <ele>623.40002441406</ele>
        <time>2020-10-02T08:08:35.000Z</time>
      </trkpt>
      <trkpt lat="44.07109" lon="3.04978">
        <ele>621.79998779297</ele>
        <time>2020-10-02T08:08:36.000Z</time>
      </trkpt>
      <trkpt lat="44.0711" lon="3.04979">
        <ele>620.79998779297</ele>
        <time>2020-10-02T08:08:37.000Z</time>
      </trkpt>
      <trkpt lat="44.0711" lon="3.04982">
        <ele>619.59997558594</ele>
        <time>2020-10-02T08:08:38.000Z</time>
      </trkpt>
      <trkpt lat="44.0711" lon="3.04986">
        <ele>618</ele>
        <time>2020-10-02T08:08:40.000Z</time>
      </trkpt>
      <trkpt lat="44.07111" lon="3.0499">
        <ele>616.40002441406</ele>
        <time>2020-10-02T08:08:42.000Z</time>
      </trkpt>
      <trkpt lat="44.07111" lon="3.04993">
        <ele>615.59997558594</ele>
        <time>2020-10-02T08:08:44.000Z</time>
      </trkpt>
      <trkpt lat="44.07112" lon="3.04994">
        <ele>615.40002441406</ele>
        <time>2020-10-02T08:08:46.000Z</time>
      </trkpt>
      <trkpt lat="44.07112" lon="3.04994">
        <ele>615.20001220703</ele>
        <time>2020-10-02T08:09:12.000Z</time>
      </trkpt>
      <trkpt lat="44.07117" lon="3.04997">
        <ele>615</ele>
        <time>2020-10-02T08:09:20.000Z</time>
      </trkpt>
      <trkpt lat="44.07119" lon="3.04998">
        <ele>615</ele>
        <time>2020-10-02T08:09:21.000Z</time>
      </trkpt>
      <trkpt lat="44.07137" lon="3.04998">
        <ele>614.59997558594</ele>
        <time>2020-10-02T08:09:26.000Z</time>
      </trkpt>
      <trkpt lat="44.07145" lon="3.04996">
        <ele>614.40002441406</ele>
        <time>2020-10-02T08:09:28.000Z</time>
      </trkpt>
      <trkpt lat="44.07161" lon="3.04994">
        <ele>614.40002441406</ele>
        <time>2020-10-02T08:09:32.000Z</time>
      </trkpt>
      <trkpt lat="44.07183" lon="3.04982">
        <ele>614.40002441406</ele>
        <time>2020-10-02T08:09:39.000Z</time>
      </trkpt>
      <trkpt lat="44.07201" lon="3.04965">
        <ele>614.79998779297</ele>
        <time>2020-10-02T08:09:45.000Z</time>
      </trkpt>
      <trkpt lat="44.07216" lon="3.04943">
        <ele>615.40002441406</ele>
        <time>2020-10-02T08:09:51.000Z</time>
      </trkpt>
      <trkpt lat="44.0722" lon="3.04935">
        <ele>615.59997558594</ele>
        <time>2020-10-02T08:09:53.000Z</time>
      </trkpt>
      <trkpt lat="44.07237" lon="3.04899">
        <ele>616.20001220703</ele>
        <time>2020-10-02T08:10:01.000Z</time>
      </trkpt>
      <trkpt lat="44.07248" lon="3.04881">
        <ele>616.40002441406</ele>
        <time>2020-10-02T08:10:06.000Z</time>
      </trkpt>
      <trkpt lat="44.07255" lon="3.04869">
        <ele>616.40002441406</ele>
        <time>2020-10-02T08:10:09.000Z</time>
      </trkpt>
      <trkpt lat="44.07261" lon="3.04859">
        <ele>616.40002441406</ele>
        <time>2020-10-02T08:10:11.000Z</time>
      </trkpt>
      <trkpt lat="44.07274" lon="3.04832">
        <ele>615.79998779297</ele>
        <time>2020-10-02T08:10:16.000Z</time>
      </trkpt>
      <trkpt lat="44.07288" lon="3.04816">
        <ele>615.59997558594</ele>
        <time>2020-10-02T08:10:21.000Z</time>
      </trkpt>
      <trkpt lat="44.07309" lon="3.048">
        <ele>615.59997558594</ele>
        <time>2020-10-02T08:10:27.000Z</time>
      </trkpt>
      <trkpt lat="44.07331" lon="3.04788">
        <ele>615.59997558594</ele>
        <time>2020-10-02T08:10:32.000Z</time>
      </trkpt>
      <trkpt lat="44.07358" lon="3.04778">
        <ele>615.79998779297</ele>
        <time>2020-10-02T08:10:39.000Z</time>
      </trkpt>
      <trkpt lat="44.0737" lon="3.04774">
        <ele>615.79998779297</ele>
        <time>2020-10-02T08:10:42.000Z</time>
      </trkpt>
      <trkpt lat="44.07382" lon="3.04768">
        <ele>615.79998779297</ele>
        <time>2020-10-02T08:10:45.000Z</time>
      </trkpt>
      <trkpt lat="44.07411" lon="3.04751">
        <ele>615.59997558594</ele>
        <time>2020-10-02T08:10:51.000Z</time>
      </trkpt>
      <trkpt lat="44.07451" lon="3.04725">
        <ele>614.59997558594</ele>
        <time>2020-10-02T08:10:57.000Z</time>
      </trkpt>
      <trkpt lat="44.07459" lon="3.04722">
        <ele>614.20001220703</ele>
        <time>2020-10-02T08:10:58.000Z</time>
      </trkpt>
      <trkpt lat="44.07483" lon="3.04725">
        <ele>613</ele>
        <time>2020-10-02T08:11:01.000Z</time>
      </trkpt>
      <trkpt lat="44.07507" lon="3.04747">
        <ele>611.59997558594</ele>
        <time>2020-10-02T08:11:04.000Z</time>
      </trkpt>
      <trkpt lat="44.07524" lon="3.04781">
        <ele>610</ele>
        <time>2020-10-02T08:11:07.000Z</time>
      </trkpt>
      <trkpt lat="44.07528" lon="3.04792">
        <ele>608.79998779297</ele>
        <time>2020-10-02T08:11:08.000Z</time>
      </trkpt>
      <trkpt lat="44.07535" lon="3.04803">
        <ele>608</ele>
        <time>2020-10-02T08:11:09.000Z</time>
      </trkpt>
      <trkpt lat="44.07542" lon="3.04811">
        <ele>607</ele>
        <time>2020-10-02T08:11:10.000Z</time>
      </trkpt>
      <trkpt lat="44.07549" lon="3.04817">
        <ele>606.20001220703</ele>
        <time>2020-10-02T08:11:11.000Z</time>
      </trkpt>
      <trkpt lat="44.07556" lon="3.0482">
        <ele>605.40002441406</ele>
        <time>2020-10-02T08:11:12.000Z</time>
      </trkpt>
      <trkpt lat="44.07567" lon="3.04821">
        <ele>603.79998779297</ele>
        <time>2020-10-02T08:11:14.000Z</time>
      </trkpt>
      <trkpt lat="44.07572" lon="3.04819">
        <ele>602.20001220703</ele>
        <time>2020-10-02T08:11:16.000Z</time>
      </trkpt>
      <trkpt lat="44.07573" lon="3.04818">
        <ele>601.40002441406</ele>
        <time>2020-10-02T08:11:17.000Z</time>
      </trkpt>
      <trkpt lat="44.07573" lon="3.04817">
        <ele>600.79998779297</ele>
        <time>2020-10-02T08:11:18.000Z</time>
      </trkpt>
      <trkpt lat="44.07573" lon="3.04816">
        <ele>599.59997558594</ele>
        <time>2020-10-02T08:11:20.000Z</time>
      </trkpt>
      <trkpt lat="44.07572" lon="3.04815">
        <ele>598.79998779297</ele>
        <time>2020-10-02T08:11:23.000Z</time>
      </trkpt>
    </trkseg>
  </trk>
</gpx>